Ticket #758: newcrash1111.nmea

File newcrash1111.nmea, 65.7 KB (added by perepujal, 11 years ago)
Line 
1$GPGGA,082029.00,4221.409284,N,00132.250094,E,1,06,0.5,787.0,M,,M,,*74
2$PGLOR,STA,082029.00,1.150,0.000,-1151,1,5,3,PWR,D,N*47
3$PGLOR,SIO,TxERR,0,RxERR,0,TxCNT,288,RxCNT,1912,DTMS,1000,DTIN,3,DTOUT,310*41
4$GPGSV,3,1,09,29,84,217,48,25,64,060,48,30,64,316,47,31,44,309,47*7F
5$GPGSV,3,2,09,12,28,085,49,14,24,230,41,02,19,046,,21,15,173,*75
6$GPGSV,3,3,09,09,00,145,*49
7$GPGSA,A,3,12,14,25,29,30,31,,,,,,,1.1,0.5,1.0*3D
8$PGLOR,FIX,1.0*3E
9$GPRMC,082029.00,A,4221.409284,N,00132.250094,E,037.7,071.7,111110,,*3D
10$GPGGA,082030.00,4221.413757,N,00132.274161,E,1,05,0.5,787.0,M,,M,,*72
11$PGLOR,STA,082030.00,1.150,0.000,-1151,1,5,3,PWR,D,N*4F
12$PGLOR,SIO,TxERR,0,RxERR,0,TxCNT,324,RxCNT,1868,DTMS,997,DTIN,2,DTOUT,310*7D
13$GPGSA,A,3,12,14,25,29,30,31,,,,,,,1.1,0.5,1.0*3D
14$PGLOR,FIX,1.0*3E
15$GPRMC,082030.00,A,4221.413757,N,00132.274161,E,037.7,072.7,111110,,*3B
16$GPGGA,082031.00,4221.415979,N,00132.288107,E,1,05,1.0,787.0,M,,M,,*70
17$PGLOR,STA,082031.00,1.150,0.000,-1151,1,10,3,PWR,D,N*7A
18$PGLOR,SIO,TxERR,0,RxERR,0,TxCNT,232,RxCNT,1928,DTMS,1000,DTIN,1,DTOUT,310*4B
19$GPGSA,A,3,12,14,25,29,30,31,,,,,,,2.2,1.0,2.0*3A
20$PGLOR,FIX,1.0*3E
21$GPRMC,082031.00,A,4221.415979,N,00132.288107,E,038.3,075.6,111110,,*30
22$GPGGA,082032.00,4221.417474,N,00132.302292,E,1,06,0.5,787.0,M,,M,,*7A
23$PGLOR,STA,082032.00,1.150,0.000,-1150,1,5,3,PWR,D,N*4C
24$PGLOR,SIO,TxERR,0,RxERR,0,TxCNT,340,RxCNT,1340,DTMS,1002,DTIN,2,DTOUT,310*4A
25$GPGSA,A,3,12,14,25,29,30,31,,,,,,,1.1,0.5,1.0*3D
26$PGLOR,FIX,1.0*3E
27$GPRMC,082032.00,A,4221.417474,N,00132.302292,E,038.3,078.7,111110,,*31
28$GPGGA,082033.00,4221.415093,N,00132.306038,E,1,06,0.5,787.0,M,,M,,*72
29$PGLOR,STA,082033.00,1.150,0.000,-1150,1,5,1,PWR,D,N*4F
30$PGLOR,SIO,TxERR,0,RxERR,0,TxCNT,228,RxCNT,1336,DTMS,1000,DTIN,2,DTOUT,310*46
31$GPGSA,A,3,12,14,25,29,30,31,,,,,,,1.1,0.5,1.0*3D
32$PGLOR,FIX,1.0*3E
33$GPRMC,082033.00,A,4221.415093,N,00132.306038,E,038.5,092.6,111110,,*3A
34$GPGGA,082034.00,4221.414061,N,00132.320530,E,1,06,1.0,787.0,M,,M,,*74
35$PGLOR,STA,082034.00,1.150,0.000,-1151,1,10,3,PWR,D,N*7F
36$PGLOR,SIO,TxERR,0,RxERR,0,TxCNT,140,RxCNT,1296,DTMS,1001,DTIN,1,DTOUT,310*42
37$GPGSV,3,1,09,29,84,218,48,25,64,060,47,30,64,316,46,31,44,309,47*7E
38$GPGSV,3,2,09,12,28,085,49,14,24,230,40,02,19,046,,21,15,173,*74
39$GPGSV,3,3,09,09,00,145,*49
40$GPGSA,A,3,12,14,25,29,30,31,,,,,,,2.2,1.0,2.0*3A
41$PGLOR,FIX,1.0*3E
42$GPRMC,082034.00,A,4221.414061,N,00132.320530,E,038.5,095.0,111110,,*39
43$GPGGA,082035.00,4221.412253,N,00132.334904,E,1,06,0.5,788.0,M,,M,,*75
44$PGLOR,STA,082035.00,1.150,0.000,-1151,1,5,1,PWR,D,N*48
45$PGLOR,SIO,TxERR,0,RxERR,0,TxCNT,192,RxCNT,1368,DTMS,999,DTIN,1,DTOUT,310*74
46$GPGSA,A,3,12,14,25,29,30,31,,,,,,,1.1,0.5,1.0*3D
47$PGLOR,FIX,1.0*3E
48$GPRMC,082035.00,A,4221.412253,N,00132.334904,E,038.7,100.0,111110,,*3C
49$GPGGA,082036.00,4221.410321,N,00132.349389,E,1,06,0.5,788.0,M,,M,,*75
50$PGLOR,STA,082036.00,1.150,0.000,-1152,1,5,3,PWR,D,N*4A
51$PGLOR,SIO,TxERR,0,RxERR,0,TxCNT,192,RxCNT,1472,DTMS,1001,DTIN,1,DTOUT,310*41
52$GPGSA,A,3,12,14,25,29,30,31,,,,,,,1.1,0.5,1.0*3D
53$PGLOR,FIX,1.0*3E
54$GPRMC,082036.00,A,4221.410321,N,00132.349389,E,038.9,100.5,111110,,*37
55$GPGGA,082037.00,4221.408266,N,00132.363938,E,1,06,0.5,788.0,M,,M,,*77
56$PGLOR,STA,082037.00,1.150,0.000,-1153,1,5,3,PWR,D,N*4A
57$PGLOR,SIO,TxERR,0,RxERR,0,TxCNT,316,RxCNT,1828,DTMS,999,DTIN,2,DTOUT,310*76
58$GPGSA,A,3,12,14,25,29,30,31,,,,,,,1.1,0.5,1.0*3D
59$PGLOR,FIX,1.0*3E
60$GPRMC,082037.00,A,4221.408266,N,00132.363938,E,039.0,101.0,111110,,*39
61$GPGGA,082038.00,4221.406284,N,00132.378532,E,1,06,0.5,789.0,M,,M,,*77
62$PGLOR,STA,082038.00,1.150,0.000,-1153,1,5,3,PWR,D,N*45
63$PGLOR,SIO,TxERR,0,RxERR,0,TxCNT,180,RxCNT,1324,DTMS,1000,DTIN,1,DTOUT,310*47
64$GPGSA,A,3,12,14,25,29,30,31,,,,,,,1.1,0.5,1.0*3D
65$PGLOR,FIX,1.0*3E
66$GPRMC,082038.00,A,4221.406284,N,00132.378532,E,039.1,100.9,111110,,*31
67$GPGGA,082039.00,4221.404175,N,00132.392922,E,1,06,0.5,789.0,M,,M,,*70
68$PGLOR,STA,082039.00,1.150,0.000,-1153,1,5,3,PWR,D,N*44
69$PGLOR,SIO,TxERR,0,RxERR,0,TxCNT,228,RxCNT,1324,DTMS,1001,DTIN,1,DTOUT,310*47
70$GPGSV,3,1,09,29,84,218,48,25,64,060,46,30,64,316,46,31,44,308,47*7E
71$GPGSV,3,2,09,12,28,085,47,14,24,230,42,02,19,046,,21,15,173,*78
72$GPGSV,3,3,09,09,00,145,*49
73$GPGSA,A,3,12,14,25,29,30,31,,,,,,,1.1,0.5,1.0*3D
74$PGLOR,FIX,1.0*3E
75$GPRMC,082039.00,A,4221.404175,N,00132.392922,E,039.0,101.5,111110,,*3A
76$GPGGA,082040.00,4221.402331,N,00132.407248,E,1,06,0.5,789.0,M,,M,,*76
77$PGLOR,STA,082040.00,1.150,0.000,-1152,1,5,3,PWR,D,N*4B
78$PGLOR,SIO,TxERR,0,RxERR,0,TxCNT,180,RxCNT,1516,DTMS,999,DTIN,1,DTOUT,310*78
79$GPGSA,A,3,12,14,25,29,30,31,,,,,,,1.1,0.5,1.0*3D
80$PGLOR,FIX,1.0*3E
81$GPRMC,082040.00,A,4221.402331,N,00132.407248,E,038.8,100.2,111110,,*33
82$GPGGA,082041.00,4221.401329,N,00132.421642,E,1,06,0.5,790.0,M,,M,,*7F
83$PGLOR,STA,082041.00,1.150,0.000,-1153,1,5,1,PWR,D,N*49
84$PGLOR,SIO,TxERR,0,RxERR,0,TxCNT,196,RxCNT,1720,DTMS,1000,DTIN,1,DTOUT,310*40
85$GPGSA,A,3,12,14,25,29,30,31,,,,,,,1.1,0.5,1.0*3D
86$PGLOR,FIX,1.0*3E
87$GPRMC,082041.00,A,4221.401329,N,00132.421642,E,038.7,094.7,111110,,*34
88$GPGGA,082042.00,4221.401791,N,00132.435785,E,1,06,0.5,790.0,M,,M,,*74
89$PGLOR,STA,082042.00,1.150,0.000,-1153,1,5,1,PWR,D,N*4A
90$PGLOR,SIO,TxERR,0,RxERR,0,TxCNT,180,RxCNT,1452,DTMS,1000,DTIN,2,DTOUT,310*42
91$GPGSA,A,3,12,14,25,29,30,31,,,,,,,1.1,0.5,1.0*3D
92$PGLOR,FIX,1.0*3E
93$GPRMC,082042.00,A,4221.401791,N,00132.435785,E,038.3,086.2,111110,,*3D
94$GPGGA,082043.00,4221.403574,N,00132.449570,E,1,06,1.0,791.0,M,,M,,*78
95$PGLOR,STA,082043.00,1.150,0.000,-1153,1,10,1,PWR,D,N*7F
96$PGLOR,SIO,TxERR,0,RxERR,0,TxCNT,220,RxCNT,1772,DTMS,1000,DTIN,1,DTOUT,310*49
97$GPGSA,A,3,12,14,25,29,30,31,,,,,,,2.2,1.0,2.0*3A
98$PGLOR,FIX,1.0*3E
99$GPRMC,082043.00,A,4221.403574,N,00132.449570,E,038.0,078.1,111110,,*35
100$GPGGA,082044.00,4221.407066,N,00132.462691,E,1,06,0.5,791.0,M,,M,,*7C
101$PGLOR,STA,082044.00,1.150,0.000,-1154,1,5,1,PWR,D,N*4B
102$PGLOR,SIO,TxERR,0,RxERR,0,TxCNT,220,RxCNT,1488,DTMS,999,DTIN,1,DTOUT,310*77
103$GPGSV,3,1,09,29,84,218,48,25,64,060,46,30,64,316,46,31,44,308,47*7E
104$GPGSV,3,2,09,12,28,085,48,14,24,230,42,02,19,046,,21,15,173,*77
105$GPGSV,3,3,09,09,00,145,*49
106$GPGSA,A,3,12,14,25,29,30,31,,,,,,,1.1,0.5,1.0*3D
107$PGLOR,FIX,1.0*3E
108$GPRMC,082044.00,A,4221.407066,N,00132.462691,E,037.9,067.3,111110,,*3F
109$GPGGA,082045.00,4221.414292,N,00132.485226,E,1,06,0.5,791.0,M,,M,,*77
110$PGLOR,STA,082045.00,1.150,0.000,-1153,1,5,1,PWR,D,N*4D
111$PGLOR,SIO,TxERR,0,RxERR,0,TxCNT,176,RxCNT,1460,DTMS,1001,DTIN,1,DTOUT,310*48
112$GPGSA,A,3,12,14,25,29,30,31,,,,,,,1.1,0.5,1.0*3D
113$PGLOR,FIX,1.0*3E
114$GPRMC,082045.00,A,4221.414292,N,00132.485226,E,037.6,056.6,111110,,*3C
115$GPGGA,082046.00,4221.421597,N,00132.495407,E,1,06,0.5,791.0,M,,M,,*74
116$PGLOR,STA,082046.00,1.150,0.000,-1154,1,5,3,PWR,D,N*4B
117$PGLOR,SIO,TxERR,0,RxERR,0,TxCNT,220,RxCNT,1648,DTMS,1005,DTIN,1,DTOUT,310*44
118$GPGSA,A,3,12,14,25,29,30,31,,,,,,,1.1,0.5,1.0*3D
119$PGLOR,FIX,1.0*3E
120$GPRMC,082046.00,A,4221.421597,N,00132.495407,E,036.6,052.6,111110,,*3A
121$GPGGA,082047.00,4221.426421,N,00132.500266,E,1,06,0.5,792.0,M,,M,,*71
122$PGLOR,STA,082047.00,1.150,0.000,-1153,1,5,3,PWR,D,N*4D
123$PGLOR,SIO,TxERR,0,RxERR,0,TxCNT,180,RxCNT,1240,DTMS,995,DTIN,1,DTOUT,310*70
124$GPGSA,A,3,12,14,25,29,30,31,,,,,,,1.1,0.5,1.0*3D
125$PGLOR,FIX,1.0*3E
126$GPRMC,082047.00,A,4221.426421,N,00132.500266,E,023.4,051.9,111110,,*36
127$GPGGA,082048.00,4221.433688,N,00132.506853,E,1,06,0.5,792.0,M,,M,,*71
128$PGLOR,STA,082048.00,1.150,0.000,-1160,1,5,0,PWR,D,N*41
129$PGLOR,SIO,TxERR,0,RxERR,0,TxCNT,276,RxCNT,1632,DTMS,1001,DTIN,1,DTOUT,310*4E
130$GPGSA,A,3,12,14,25,29,30,31,,,,,,,1.1,0.5,1.0*3D
131$PGLOR,FIX,1.0*3E
132$GPRMC,082048.00,A,4221.433688,N,00132.506853,E,023.4,052.3,111110,,*3F
133$GPGGA,082049.00,4221.446132,N,00132.512868,E,1,05,0.5,792.0,M,,M,,*7A
134$PGLOR,STA,082049.00,1.150,0.000,-1152,1,5,1,PWR,D,N*40
135$PGLOR,SIO,TxERR,0,RxERR,0,TxCNT,312,RxCNT,1812,DTMS,997,DTIN,1,DTOUT,310*76
136$GPGSV,3,1,09,29,84,218,48,25,64,060,50,30,64,316,46,31,44,308,43*7D
137$GPGSV,3,2,09,12,28,086,49,14,24,230,42,02,19,046,,21,15,173,*75
138$GPGSV,3,3,09,09,00,145,*49
139$GPGSA,A,3,12,14,25,29,30,31,,,,,,,1.1,0.5,1.0*3D
140$PGLOR,FIX,1.0*3E
141$GPRMC,082049.00,A,4221.446132,N,00132.512868,E,035.9,022.3,111110,,*3A
142$GPGGA,082050.00,4221.457083,N,00132.516772,E,1,05,0.5,793.0,M,,M,,*78
143$PGLOR,STA,082050.00,1.150,0.000,-1152,1,5,3,PWR,D,N*4A
144$PGLOR,SIO,TxERR,0,RxERR,0,TxCNT,356,RxCNT,1916,DTMS,1000,DTIN,2,DTOUT,310*46
145$PGLOR,PFM,HAL,P,0,0,100,0,RF,F,-123,0.4,25,RTC,23.8,P,STO,P,LTO,F*4C
146$GPGSA,A,3,12,14,25,29,30,31,,,,,,,1.1,0.5,1.0*3D
147$PGLOR,FIX,1.0*3E
148$GPRMC,082050.00,A,4221.457083,N,00132.516772,E,036.2,021.4,111110,,*35
149$GPGGA,082051.00,4221.467571,N,00132.520676,E,1,05,0.5,793.0,M,,M,,*72
150$PGLOR,STA,082051.00,1.150,0.000,-1152,1,5,3,PWR,D,N*4B
151$PGLOR,SIO,TxERR,0,RxERR,0,TxCNT,268,RxCNT,1968,DTMS,1000,DTIN,1,DTOUT,310*40
152$GPGSA,A,3,12,14,25,29,30,,,,,,,,1.1,0.5,1.0*3F
153$PGLOR,FIX,1.0*3E
154$GPRMC,082051.00,A,4221.467571,N,00132.520676,E,036.0,021.0,111110,,*39
155$GPGGA,082052.00,4221.477899,N,00132.524851,E,1,05,0.5,794.0,M,,M,,*73
156$PGLOR,STA,082052.00,1.150,0.000,-1152,1,5,3,PWR,D,N*48
157$PGLOR,SIO,TxERR,0,RxERR,0,TxCNT,180,RxCNT,2060,DTMS,1001,DTIN,1,DTOUT,310*46
158$GPGSA,A,3,12,14,25,29,30,,,,,,,,1.1,0.5,1.0*3F
159$PGLOR,FIX,1.0*3E
160$GPRMC,082052.00,A,4221.477899,N,00132.524851,E,036.5,021.0,111110,,*3A
161$GPGGA,082053.00,4221.487693,N,00132.529901,E,1,05,0.5,794.0,M,,M,,*70
162$PGLOR,STA,082053.00,1.150,0.000,-1152,1,5,3,PWR,D,N*49
163$PGLOR,SIO,TxERR,0,RxERR,0,TxCNT,180,RxCNT,1900,DTMS,999,DTIN,2,DTOUT,310*70
164$GPGSA,A,3,12,14,25,29,30,,,,,,,,1.1,0.5,1.0*3F
165$PGLOR,FIX,1.0*3E
166$GPRMC,082053.00,A,4221.487693,N,00132.529901,E,036.2,023.3,111110,,*3F
167$GPGGA,082054.00,4221.497160,N,00132.536257,E,1,05,0.5,795.0,M,,M,,*7A
168$PGLOR,STA,082054.00,1.150,0.000,-1152,1,5,3,PWR,D,N*4E
169$PGLOR,SIO,TxERR,0,RxERR,0,TxCNT,208,RxCNT,1968,DTMS,1000,DTIN,2,DTOUT,310*45
170$GPGSV,3,1,09,29,84,218,48,25,64,060,50,30,64,316,45,12,28,086,49*7A
171$GPGSV,3,2,09,14,24,230,41,31,44,308,,02,19,046,,21,15,173,*75
172$GPGSV,3,3,09,09,00,145,*49
173$GPGSA,A,3,12,14,25,29,30,,,,,,,,1.1,0.5,1.0*3F
174$PGLOR,FIX,1.0*3E
175$GPRMC,082054.00,A,4221.497160,N,00132.536257,E,036.9,026.5,111110,,*3C
176$GPGGA,082055.00,4221.504732,N,00132.546193,E,1,05,0.5,795.0,M,,M,,*7D
177$PGLOR,STA,082055.00,1.150,0.000,-1152,1,5,1,PWR,D,N*4D
178$PGLOR,SIO,TxERR,0,RxERR,0,TxCNT,368,RxCNT,1732,DTMS,1000,DTIN,2,DTOUT,310*43
179$GPGSA,A,3,12,14,25,29,30,,,,,,,,1.1,0.5,1.0*3F
180$PGLOR,FIX,1.0*3E
181$GPRMC,082055.00,A,4221.504732,N,00132.546193,E,036.7,042.0,111110,,*32
182$GPGGA,082056.00,4221.511831,N,00132.556713,E,1,05,0.5,796.0,M,,M,,*7A
183$PGLOR,STA,082056.00,1.150,0.000,-1152,1,5,3,PWR,D,N*4C
184$PGLOR,SIO,TxERR,0,RxERR,0,TxCNT,220,RxCNT,2244,DTMS,1009,DTIN,2,DTOUT,310*40
185$GPGSA,A,3,12,14,25,29,30,,,,,,,,1.1,0.5,1.0*3F
186$PGLOR,FIX,1.0*3E
187$GPRMC,082056.00,A,4221.511831,N,00132.556713,E,036.8,045.2,111110,,*3C
188$GPGGA,082057.00,4221.516887,N,00132.569552,E,1,05,0.5,796.0,M,,M,,*7A
189$PGLOR,STA,082057.00,1.150,0.000,-1152,1,5,1,PWR,D,N*4F
190$PGLOR,SIO,TxERR,0,RxERR,0,TxCNT,80,RxCNT,2144,DTMS,996,DTIN,1,DTOUT,310*46
191$GPGSA,A,3,12,14,25,29,30,,,,,,,,1.1,0.5,1.0*3F
192$PGLOR,FIX,1.0*3E
193$GPRMC,082057.00,A,4221.516887,N,00132.569552,E,037.1,058.6,111110,,*3C
194$GPGGA,082058.00,4221.521895,N,00132.582351,E,1,05,0.5,796.0,M,,M,,*72
195$PGLOR,STA,082058.00,1.150,0.000,-1152,1,5,3,PWR,D,N*42
196$PGLOR,SIO,TxERR,0,RxERR,0,TxCNT,196,RxCNT,2432,DTMS,995,DTIN,1,DTOUT,310*77
197$GPGSA,A,3,12,14,25,29,30,,,,,,,,1.1,0.5,1.0*3F
198$PGLOR,FIX,1.0*3E
199$GPRMC,082058.00,A,4221.521895,N,00132.582351,E,037.5,059.7,111110,,*30
200$GPGGA,082059.00,4221.526664,N,00132.595317,E,1,05,0.5,797.0,M,,M,,*71
201$PGLOR,STA,082059.00,1.150,0.000,-1152,1,5,3,PWR,D,N*43
202$PGLOR,SIO,TxERR,0,RxERR,0,TxCNT,180,RxCNT,2084,DTMS,1000,DTIN,1,DTOUT,310*4D
203$GPGSV,3,1,09,29,84,218,48,25,64,060,50,30,64,316,45,12,28,086,49*7A
204$GPGSV,3,2,09,14,24,230,41,31,44,308,,02,19,046,,21,15,173,*75
205$GPGSV,3,3,09,09,00,145,*49
206$GPGSA,A,3,12,14,25,29,30,,,,,,,,1.1,0.5,1.0*3F
207$PGLOR,FIX,1.0*3E
208$GPRMC,082059.00,A,4221.526664,N,00132.595317,E,037.7,061.4,111110,,*38
209$GPGGA,082100.00,4221.531227,N,00132.608474,E,1,05,0.5,797.0,M,,M,,*7C
210$PGLOR,STA,082100.00,1.150,0.000,-1152,1,5,3,PWR,D,N*4E
211$PGLOR,SIO,TxERR,0,RxERR,0,TxCNT,292,RxCNT,2248,DTMS,1000,DTIN,1,DTOUT,310*4F
212$GPGSA,A,3,12,14,25,29,30,,,,,,,,1.1,0.5,1.0*3F
213$PGLOR,FIX,1.0*3E
214$GPRMC,082100.00,A,4221.531227,N,00132.608474,E,037.9,062.8,111110,,*34
215$GPGGA,082101.00,4221.535354,N,00132.621967,E,1,05,0.5,797.0,M,,M,,*78
216$PGLOR,STA,082101.00,1.150,0.000,-1152,1,5,3,PWR,D,N*4F
217$PGLOR,SIO,TxERR,0,RxERR,0,TxCNT,316,RxCNT,2376,DTMS,1000,DTIN,1,DTOUT,310*4E
218$GPGSA,A,3,12,14,25,29,30,,,,,,,,1.1,0.5,1.0*3F
219$PGLOR,FIX,1.0*3E
220$GPRMC,082101.00,A,4221.535354,N,00132.621967,E,038.1,065.2,111110,,*3A
221$GPGGA,082102.00,4221.534977,N,00132.626328,E,1,03,0.5,797.0,M,,M,,*71
222$PGLOR,STA,082102.00,1.150,0.000,-1152,1,5,1,PWR,D,N*4E
223$PGLOR,SIO,TxERR,0,RxERR,0,TxCNT,264,RxCNT,2316,DTMS,994,DTIN,1,DTOUT,310*79
224$GPGSA,A,3,12,14,25,29,30,,,,,,,,1.1,0.5,1.0*3F
225$PGLOR,FIX,1.0*3E
226$GPRMC,082102.00,A,4221.534977,N,00132.626328,E,038.5,068.3,111110,,*3D
227$GPGGA,082103.00,4221.537368,N,00132.640629,E,1,05,0.5,798.0,M,,M,,*7A
228$PGLOR,STA,082103.00,1.150,0.000,-1152,1,5,1,PWR,D,N*4F
229$PGLOR,SIO,TxERR,0,RxERR,0,TxCNT,348,RxCNT,2952,DTMS,1007,DTIN,1,DTOUT,310*4E
230$GPGSA,A,3,12,14,25,29,30,,,,,,,,1.1,0.5,1.0*3F
231$PGLOR,FIX,1.0*3E
232$GPRMC,082103.00,A,4221.537368,N,00132.640629,E,038.5,077.1,111110,,*33
233$GPGGA,082104.00,4221.538971,N,00132.655028,E,1,05,0.5,798.0,M,,M,,*73
234$PGLOR,STA,082104.00,1.150,0.000,-1152,1,5,1,PWR,D,N*48
235$PGLOR,SIO,TxERR,0,RxERR,0,TxCNT,304,RxCNT,2376,DTMS,999,DTIN,1,DTOUT,310*75
236$GPGSV,3,1,09,29,84,218,44,25,64,061,46,30,64,316,47,12,28,086,49*72
237$GPGSV,3,2,09,14,24,230,41,31,44,308,,02,19,046,,21,15,173,*75
238$GPGSV,3,3,09,09,00,145,*49
239$GPGSA,A,3,12,14,25,29,30,,,,,,,,1.1,0.5,1.0*3F
240$PGLOR,FIX,1.0*3E
241$GPRMC,082104.00,A,4221.538971,N,00132.655028,E,038.5,083.3,111110,,*33
242$GPGGA,082105.00,4221.539884,N,00132.669522,E,1,05,0.5,798.0,M,,M,,*78
243$PGLOR,STA,082105.00,1.150,0.000,-1152,1,5,3,PWR,D,N*4B
244$PGLOR,SIO,TxERR,0,RxERR,0,TxCNT,316,RxCNT,2376,DTMS,1000,DTIN,1,DTOUT,310*4E
245$GPGSA,A,3,12,14,25,29,30,,,,,,,,1.1,0.5,1.0*3F
246$PGLOR,FIX,1.0*3E
247$GPRMC,082105.00,A,4221.539884,N,00132.669522,E,038.6,086.9,111110,,*34
248$GPGGA,082106.00,4221.540265,N,00132.684117,E,1,04,0.5,798.0,M,,M,,*70
249$PGLOR,STA,082106.00,1.150,0.000,-1152,1,5,3,PWR,D,N*48
250$PGLOR,SIO,TxERR,0,RxERR,0,TxCNT,276,RxCNT,2396,DTMS,997,DTIN,2,DTOUT,310*72
251$GPGSA,A,3,12,14,25,29,30,,,,,,,,1.1,0.5,1.0*3F
252$PGLOR,FIX,1.0*3E
253$GPRMC,082106.00,A,4221.540265,N,00132.684117,E,038.7,089.5,111110,,*3F
254$GPGGA,082107.00,4221.540276,N,00132.698856,E,1,05,0.5,799.0,M,,M,,*72
255$PGLOR,STA,082107.00,1.150,0.000,-1152,1,5,3,PWR,D,N*49
256$PGLOR,SIO,TxERR,0,RxERR,0,TxCNT,480,RxCNT,2892,DTMS,1008,DTIN,3,DTOUT,310*4D
257$GPGSA,A,3,12,14,25,29,30,31,,,,,,,1.1,0.5,1.0*3D
258$PGLOR,FIX,1.0*3E
259$GPRMC,082107.00,A,4221.540276,N,00132.698856,E,038.9,091.0,111110,,*3F
260$GPGGA,082108.00,4221.539656,N,00132.713692,E,1,05,3.0,799.0,M,,M,,*77
261$PGLOR,STA,082108.00,1.150,0.000,-1152,1,30,3,PWR,D,N*70
262$PGLOR,SIO,TxERR,0,RxERR,0,TxCNT,192,RxCNT,1212,DTMS,995,DTIN,1,DTOUT,310*74
263$GPGSA,A,3,12,14,25,29,30,31,,,,,,,6.7,3.0,6.0*3D
264$PGLOR,FIX,1.0*3E
265$GPRMC,082108.00,A,4221.539656,N,00132.713692,E,039.2,093.4,111110,,*30
266$GPGGA,082109.00,4221.537976,N,00132.728730,E,1,05,0.5,799.0,M,,M,,*72
267$PGLOR,STA,082109.00,1.150,0.000,-1152,1,5,3,PWR,D,N*47
268$PGLOR,SIO,TxERR,0,RxERR,0,TxCNT,292,RxCNT,1940,DTMS,1000,DTIN,1,DTOUT,310*4F
269$GPGSV,3,1,09,29,84,218,45,25,64,061,42,30,64,316,47,31,44,308,12*77
270$GPGSV,3,2,09,12,28,086,49,14,24,230,38,02,19,046,,21,15,173,*78
271$GPGSV,3,3,09,09,00,145,*49
272$GPGSA,A,3,12,14,25,29,30,31,,,,,,,1.1,0.5,1.0*3D
273$PGLOR,FIX,1.0*3E
274$GPRMC,082109.00,A,4221.537976,N,00132.728730,E,039.4,098.1,111110,,*3B
275$GPGGA,082110.00,4221.535711,N,00132.743904,E,1,05,0.5,800.0,M,,M,,*7C
276$PGLOR,STA,082110.00,1.150,0.000,-1152,1,5,3,PWR,D,N*4F
277$PGLOR,SIO,TxERR,0,RxERR,0,TxCNT,304,RxCNT,2564,DTMS,999,DTIN,1,DTOUT,310*70
278$GPGSA,A,3,12,14,25,29,30,,,,,,,,1.1,0.5,1.0*3F
279$PGLOR,FIX,1.0*3E
280$GPRMC,082110.00,A,4221.535711,N,00132.743904,E,039.6,101.1,111110,,*39
281$GPGGA,082111.00,4221.533213,N,00132.759033,E,1,05,0.5,800.0,M,,M,,*7A
282$PGLOR,STA,082111.00,1.150,0.000,-1153,1,5,0,PWR,D,N*4C
283$PGLOR,SIO,TxERR,0,RxERR,0,TxCNT,276,RxCNT,2540,DTMS,1000,DTIN,1,DTOUT,310*4A
284$GPGSA,A,3,12,14,25,29,30,,,,,,,,1.1,0.5,1.0*3F
285$PGLOR,FIX,1.0*3E
286$GPRMC,082111.00,A,4221.533213,N,00132.759033,E,039.2,097.9,111110,,*3D
287$GPGGA,082112.00,4221.530910,N,00132.774251,E,1,05,0.5,800.0,M,,M,,*7B
288$PGLOR,STA,082112.00,1.150,0.000,-1154,1,5,3,PWR,D,N*4B
289$PGLOR,SIO,TxERR,0,RxERR,0,TxCNT,304,RxCNT,2756,DTMS,1001,DTIN,2,DTOUT,310*49
290$GPGSA,A,3,12,14,25,29,30,,,,,,,,1.1,0.5,1.0*3F
291$PGLOR,FIX,1.0*3E
292$GPRMC,082112.00,A,4221.530910,N,00132.774251,E,039.8,100.9,111110,,*39
293$GPGGA,082113.00,4221.528690,N,00132.789574,E,1,05,0.5,801.0,M,,M,,*77
294$PGLOR,STA,082113.00,1.150,0.000,-1152,1,5,3,PWR,D,N*4C
295$PGLOR,SIO,TxERR,0,RxERR,0,TxCNT,276,RxCNT,2360,DTMS,1000,DTIN,1,DTOUT,310*4E
296$GPGSA,A,3,12,14,25,29,30,,,,,,,,1.1,0.5,1.0*3F
297$PGLOR,FIX,1.0*3E
298$GPRMC,082113.00,A,4221.528690,N,00132.789574,E,040.0,100.7,111110,,*3C
299$GPGGA,082114.00,4221.526622,N,00132.804852,E,1,05,0.5,801.0,M,,M,,*74
300$PGLOR,STA,082114.00,1.150,0.000,-1152,1,5,3,PWR,D,N*4B
301$PGLOR,SIO,TxERR,0,RxERR,0,TxCNT,332,RxCNT,2420,DTMS,1001,DTIN,2,DTOUT,310*4E
302$GPGSV,3,1,09,29,84,218,46,25,64,061,42,30,64,316,47,12,28,086,47*7A
303$GPGSV,3,2,09,14,24,230,39,31,44,308,,02,19,046,,21,15,173,*7A
304$GPGSV,3,3,09,09,00,145,*49
305$GPGSA,A,3,12,14,25,29,30,,,,,,,,1.1,0.5,1.0*3F
306$PGLOR,FIX,1.0*3E
307$GPRMC,082114.00,A,4221.526622,N,00132.804852,E,040.1,100.0,111110,,*39
308$GPGGA,082115.00,4221.524281,N,00132.819938,E,1,05,0.5,801.0,M,,M,,*7B
309$PGLOR,STA,082115.00,1.150,0.000,-1153,1,5,3,PWR,D,N*4B
310$PGLOR,SIO,TxERR,0,RxERR,0,TxCNT,284,RxCNT,2476,DTMS,998,DTIN,1,DTOUT,310*7A
311$GPGSA,A,3,12,14,25,29,30,,,,,,,,1.1,0.5,1.0*3F
312$PGLOR,FIX,1.0*3E
313$GPRMC,082115.00,A,4221.524281,N,00132.819938,E,040.0,101.4,111110,,*32
314$GPGGA,082116.00,4221.522081,N,00132.834889,E,1,05,0.5,802.0,M,,M,,*7B
315$PGLOR,STA,082116.00,1.150,0.000,-1153,1,5,3,PWR,D,N*48
316$PGLOR,SIO,TxERR,0,RxERR,0,TxCNT,376,RxCNT,2876,DTMS,1001,DTIN,2,DTOUT,310*41
317$GPGSA,A,3,12,14,25,29,30,,,,,,,,1.1,0.5,1.0*3F
318$PGLOR,FIX,1.0*3E
319$GPRMC,082116.00,A,4221.522081,N,00132.834889,E,040.0,100.7,111110,,*33
320$GPGGA,082117.00,4221.519685,N,00132.849752,E,1,05,0.5,802.0,M,,M,,*73
321$PGLOR,STA,082117.00,1.150,0.000,-1153,1,5,3,PWR,D,N*49
322$PGLOR,SIO,TxERR,0,RxERR,0,TxCNT,232,RxCNT,2388,DTMS,1000,DTIN,2,DTOUT,310*4B
323$GPGSA,A,3,12,14,25,29,30,,,,,,,,1.1,0.5,1.0*3F
324$PGLOR,FIX,1.0*3E
325$GPRMC,082117.00,A,4221.519685,N,00132.849752,E,040.1,101.5,111110,,*39
326$GPGGA,082118.00,4221.517344,N,00132.864515,E,1,05,0.5,803.0,M,,M,,*75
327$PGLOR,STA,082118.00,1.150,0.000,-1152,1,5,3,PWR,D,N*47
328$PGLOR,SIO,TxERR,0,RxERR,0,TxCNT,292,RxCNT,2252,DTMS,1000,DTIN,1,DTOUT,310*44
329$GPGSA,A,3,12,14,25,29,30,,,,,,,,1.1,0.5,1.0*3F
330$PGLOR,FIX,1.0*3E
331$GPRMC,082118.00,A,4221.517344,N,00132.864515,E,040.0,100.9,111110,,*32
332$GPGGA,082119.00,4221.514658,N,00132.879202,E,1,05,0.5,803.0,M,,M,,*72
333$PGLOR,STA,082119.00,1.150,0.000,-1153,1,5,3,PWR,D,N*47
334$PGLOR,SIO,TxERR,0,RxERR,0,TxCNT,276,RxCNT,2332,DTMS,1000,DTIN,1,DTOUT,310*49
335$GPGSV,3,1,09,29,84,218,46,25,64,061,44,30,64,316,47,12,28,086,47*7C
336$GPGSV,3,2,09,14,24,230,41,31,44,308,,02,19,046,,21,15,173,*75
337$GPGSV,3,3,09,09,00,145,*49
338$GPGSA,A,3,12,14,25,29,30,,,,,,,,1.1,0.5,1.0*3F
339$PGLOR,FIX,1.0*3E
340$GPRMC,082119.00,A,4221.514658,N,00132.879202,E,039.9,103.0,111110,,*38
341$GPGGA,082120.00,4221.511351,N,00132.893667,E,1,05,0.5,803.0,M,,M,,*72
342$PGLOR,STA,082120.00,1.150,0.000,-1153,1,5,3,PWR,D,N*4D
343$PGLOR,SIO,TxERR,0,RxERR,0,TxCNT,300,RxCNT,1864,DTMS,1000,DTIN,1,DTOUT,310*42
344$GPGSA,A,3,12,14,25,29,30,,,,,,,,1.1,0.5,1.0*3F
345$PGLOR,FIX,1.0*3E
346$GPRMC,082120.00,A,4221.511351,N,00132.893667,E,039.9,106.5,111110,,*38
347$GPGGA,082121.00,4221.507451,N,00132.907543,E,1,05,0.5,804.0,M,,M,,*7D
348$PGLOR,STA,082121.00,1.150,0.000,-1153,1,5,3,PWR,D,N*4C
349$PGLOR,SIO,TxERR,0,RxERR,0,TxCNT,284,RxCNT,1664,DTMS,1000,DTIN,1,DTOUT,310*41
350$GPGSA,A,3,12,14,25,29,30,,,,,,,,1.1,0.5,1.0*3F
351$PGLOR,FIX,1.0*3E
352$GPRMC,082121.00,A,4221.507451,N,00132.907543,E,039.7,110.1,111110,,*3D
353$GPGGA,082122.00,4221.502925,N,00132.921078,E,1,05,0.5,804.0,M,,M,,*7C
354$PGLOR,STA,082122.00,1.150,0.000,-1154,1,5,3,PWR,D,N*48
355$PGLOR,SIO,TxERR,0,RxERR,0,TxCNT,304,RxCNT,1752,DTMS,1000,DTIN,1,DTOUT,310*4C
356$GPGSA,A,3,12,14,25,29,30,,,,,,,,1.1,0.5,1.0*3F
357$PGLOR,FIX,1.0*3E
358$GPRMC,082122.00,A,4221.502925,N,00132.921078,E,039.5,113.6,111110,,*3A
359$GPGGA,082123.00,4221.497914,N,00132.934272,E,1,05,0.5,804.0,M,,M,,*7E
360$PGLOR,STA,082123.00,1.150,0.000,-1154,1,5,3,PWR,D,N*49
361$PGLOR,SIO,TxERR,0,RxERR,0,TxCNT,264,RxCNT,1324,DTMS,1000,DTIN,1,DTOUT,310*4E
362$GPGSA,A,3,12,14,25,29,30,,,,,,,,1.1,0.5,1.0*3F
363$PGLOR,FIX,1.0*3E
364$GPRMC,082123.00,A,4221.497914,N,00132.934272,E,039.4,116.4,111110,,*3E
365$GPGGA,082124.00,4221.492779,N,00132.947272,E,1,05,0.5,804.0,M,,M,,*7D
366$PGLOR,STA,082124.00,1.150,0.000,-1153,1,5,3,PWR,D,N*49
367$PGLOR,SIO,TxERR,0,RxERR,0,TxCNT,332,RxCNT,1388,DTMS,999,DTIN,2,DTOUT,310*71
368$GPGSV,3,1,09,29,84,218,46,25,64,061,46,30,64,316,47,12,28,086,47*7E
369$GPGSV,3,2,09,14,24,229,43,31,44,308,,02,19,046,,21,15,173,*7F
370$GPGSV,3,3,09,09,00,145,*49
371$GPGSA,A,3,12,14,25,29,30,,,,,,,,1.1,0.5,1.0*3F
372$PGLOR,FIX,1.0*3E
373$GPRMC,082124.00,A,4221.492779,N,00132.947272,E,039.3,117.0,111110,,*3F
374$GPGGA,082125.00,4221.488008,N,00132.960476,E,1,05,0.5,805.0,M,,M,,*70
375$PGLOR,STA,082125.00,1.150,0.000,-1153,1,5,3,PWR,D,N*48
376$PGLOR,SIO,TxERR,0,RxERR,0,TxCNT,348,RxCNT,1648,DTMS,1000,DTIN,1,DTOUT,310*4E
377$GPGSA,A,3,12,14,25,29,30,,,,,,,,1.1,0.5,1.0*3F
378$PGLOR,FIX,1.0*3E
379$GPRMC,082125.00,A,4221.488008,N,00132.960476,E,039.2,114.7,111110,,*36
380$GPGGA,082126.00,4221.483771,N,00132.974005,E,1,05,0.5,805.0,M,,M,,*74
381$PGLOR,STA,082126.00,1.150,0.000,-1153,1,5,3,PWR,D,N*4B
382$PGLOR,SIO,TxERR,0,RxERR,0,TxCNT,408,RxCNT,1992,DTMS,1001,DTIN,1,DTOUT,310*44
383$GPGSA,A,3,12,14,25,29,30,,,,,,,,1.1,0.5,1.0*3F
384$PGLOR,FIX,1.0*3E
385$GPRMC,082126.00,A,4221.483771,N,00132.974005,E,039.1,111.4,111110,,*37
386$GPGGA,082127.00,4221.480283,N,00132.987919,E,1,05,0.5,805.0,M,,M,,*76
387$PGLOR,STA,082127.00,1.150,0.000,-1153,1,5,3,PWR,D,N*4A
388$PGLOR,SIO,TxERR,0,RxERR,0,TxCNT,284,RxCNT,1620,DTMS,1000,DTIN,2,DTOUT,310*42
389$GPGSA,A,3,12,14,25,29,30,,,,,,,,1.1,0.5,1.0*3F
390$PGLOR,FIX,1.0*3E
391$GPRMC,082127.00,A,4221.480283,N,00132.987919,E,039.0,106.8,111110,,*3E
392$GPGGA,082128.00,4221.477828,N,00133.002201,E,1,05,0.5,805.0,M,,M,,*7D
393$PGLOR,STA,082128.00,1.150,0.000,-1153,1,5,1,PWR,D,N*47
394$PGLOR,SIO,TxERR,0,RxERR,0,TxCNT,304,RxCNT,1952,DTMS,1000,DTIN,1,DTOUT,310*42
395$GPGSA,A,3,12,14,25,29,30,,,,,,,,1.1,0.5,1.0*3F
396$PGLOR,FIX,1.0*3E
397$GPRMC,082128.00,A,4221.477828,N,00133.002201,E,038.9,100.9,111110,,*3A
398$GPGGA,082129.00,4221.476250,N,00133.016647,E,1,05,0.5,806.0,M,,M,,*78
399$PGLOR,STA,082129.00,1.150,0.000,-1154,1,5,1,PWR,D,N*41
400$PGLOR,SIO,TxERR,0,RxERR,0,TxCNT,276,RxCNT,1636,DTMS,1000,DTIN,2,DTOUT,310*48
401$GPGSV,3,1,09,29,84,218,46,25,64,061,47,30,64,316,47,12,28,086,47*7F
402$GPGSV,3,2,09,14,24,229,42,31,44,308,,02,19,046,,21,15,173,*7E
403$GPGSV,3,3,09,09,00,145,*49
404$GPGSA,A,3,12,14,25,29,30,,,,,,,,1.1,0.5,1.0*3F
405$PGLOR,FIX,1.0*3E
406$GPRMC,082129.00,A,4221.476250,N,00133.016647,E,038.9,095.7,111110,,*3F
407$GPGGA,082130.00,4221.476040,N,00133.031245,E,1,05,0.5,806.0,M,,M,,*70
408$PGLOR,STA,082130.00,1.150,0.000,-1154,1,5,1,PWR,D,N*49
409$PGLOR,SIO,TxERR,0,RxERR,0,TxCNT,276,RxCNT,1560,DTMS,999,DTIN,1,DTOUT,310*73
410$GPGSA,A,3,12,14,25,29,30,,,,,,,,1.1,0.5,1.0*3F
411$PGLOR,FIX,1.0*3E
412$GPRMC,082130.00,A,4221.476040,N,00133.031245,E,038.9,088.3,111110,,*3F
413$GPGGA,082131.00,4221.477013,N,00133.045812,E,1,05,0.5,806.0,M,,M,,*7D
414$PGLOR,STA,082131.00,1.150,0.000,-1153,1,5,1,PWR,D,N*4F
415$PGLOR,SIO,TxERR,0,RxERR,0,TxCNT,304,RxCNT,1796,DTMS,1001,DTIN,1,DTOUT,310*45
416$GPGSA,A,3,12,14,25,29,30,,,,,,,,1.1,0.5,1.0*3F
417$PGLOR,FIX,1.0*3E
418$GPRMC,082131.00,A,4221.477013,N,00133.045812,E,039.0,082.3,111110,,*30
419$GPGGA,082132.00,4221.479111,N,00133.060235,E,1,05,0.5,806.0,M,,M,,*7B
420$PGLOR,STA,082132.00,1.150,0.000,-1154,1,5,1,PWR,D,N*4B
421$PGLOR,SIO,TxERR,0,RxERR,0,TxCNT,264,RxCNT,1696,DTMS,999,DTIN,2,DTOUT,310*79
422$GPGSA,A,3,12,14,25,29,30,,,,,,,,1.1,0.5,1.0*3F
423$PGLOR,FIX,1.0*3E
424$GPRMC,082132.00,A,4221.479111,N,00133.060235,E,039.1,077.2,111110,,*3C
425$GPGGA,082133.00,4221.481806,N,00133.074604,E,1,05,0.5,807.0,M,,M,,*70
426$PGLOR,STA,082133.00,1.150,0.000,-1154,1,5,3,PWR,D,N*48
427$PGLOR,SIO,TxERR,0,RxERR,0,TxCNT,312,RxCNT,1784,DTMS,1001,DTIN,2,DTOUT,310*42
428$GPGSA,A,3,12,14,25,29,30,,,,,,,,1.1,0.5,1.0*3F
429$PGLOR,FIX,1.0*3E
430$GPRMC,082133.00,A,4221.481806,N,00133.074604,E,039.2,074.8,111110,,*3C
431$GPGGA,082134.00,4221.484995,N,00133.088852,E,1,05,0.5,807.0,M,,M,,*77
432$PGLOR,STA,082134.00,1.150,0.000,-1154,1,5,3,PWR,D,N*4F
433$PGLOR,SIO,TxERR,0,RxERR,0,TxCNT,304,RxCNT,1660,DTMS,999,DTIN,2,DTOUT,310*77
434$GPGSV,3,1,09,29,84,218,46,25,64,061,47,30,64,316,47,12,28,086,49*71
435$GPGSV,3,2,09,14,24,229,42,31,44,308,,02,19,046,,21,15,172,*7F
436$GPGSV,3,3,09,09,00,145,*49
437$GPGSA,A,3,12,14,25,29,30,,,,,,,,1.1,0.5,1.0*3F
438$PGLOR,FIX,1.0*3E
439$GPRMC,082134.00,A,4221.484995,N,00133.088852,E,039.4,073.4,111110,,*36
440$GPGGA,082135.00,4221.488520,N,00133.103072,E,1,05,0.5,807.0,M,,M,,*70
441$PGLOR,STA,082135.00,1.150,0.000,-1154,1,5,3,PWR,D,N*4E
442$PGLOR,SIO,TxERR,0,RxERR,0,TxCNT,304,RxCNT,1956,DTMS,1001,DTIN,2,DTOUT,310*44
443$GPGSA,A,3,12,14,25,29,30,,,,,,,,1.1,0.5,1.0*3F
444$PGLOR,FIX,1.0*3E
445$GPRMC,082135.00,A,4221.488520,N,00133.103072,E,039.6,072.4,111110,,*32
446$GPGGA,082136.00,4221.491969,N,00133.117518,E,1,05,0.5,808.0,M,,M,,*79
447$PGLOR,STA,082136.00,1.150,0.000,-1155,1,5,3,PWR,D,N*4C
448$PGLOR,SIO,TxERR,0,RxERR,0,TxCNT,276,RxCNT,1496,DTMS,999,DTIN,1,DTOUT,310*7B
449$GPGSA,A,3,12,14,25,29,30,,,,,,,,1.1,0.5,1.0*3F
450$PGLOR,FIX,1.0*3E
451$GPRMC,082136.00,A,4221.491969,N,00133.117518,E,039.7,072.7,111110,,*36
452$GPGGA,082137.00,4221.495345,N,00133.132064,E,1,05,0.5,808.0,M,,M,,*71
453$PGLOR,STA,082137.00,1.150,0.000,-1154,1,5,3,PWR,D,N*4C
454$PGLOR,SIO,TxERR,0,RxERR,0,TxCNT,292,RxCNT,1520,DTMS,1000,DTIN,1,DTOUT,310*45
455$GPGSA,A,3,12,14,25,29,30,,,,,,,,1.1,0.5,1.0*3F
456$PGLOR,FIX,1.0*3E
457$GPRMC,082137.00,A,4221.495345,N,00133.132064,E,039.8,073.3,111110,,*34
458$GPGGA,082138.00,4221.498937,N,00133.146612,E,1,05,0.5,808.0,M,,M,,*78
459$PGLOR,STA,082138.00,1.150,0.000,-1155,1,5,3,PWR,D,N*42
460$PGLOR,SIO,TxERR,0,RxERR,0,TxCNT,276,RxCNT,1484,DTMS,1000,DTIN,2,DTOUT,310*43
461$GPGSA,A,3,12,14,25,29,30,,,,,,,,1.1,0.5,1.0*3F
462$PGLOR,FIX,1.0*3E
463$GPRMC,082138.00,A,4221.498937,N,00133.146612,E,039.9,072.4,111110,,*3A
464$GPGGA,082139.00,4221.502459,N,00133.161161,E,1,05,0.5,808.0,M,,M,,*78
465$PGLOR,STA,082139.00,1.150,0.000,-1155,1,5,3,PWR,D,N*43
466$PGLOR,SIO,TxERR,0,RxERR,0,TxCNT,300,RxCNT,1756,DTMS,1001,DTIN,1,DTOUT,310*4D
467$GPGSV,3,1,09,29,84,219,46,25,64,061,47,30,64,317,47,12,28,086,49*71
468$GPGSV,3,2,09,14,24,229,42,31,44,308,,02,19,046,,21,15,172,*7F
469$GPGSV,3,3,09,09,00,145,*49
470$GPGSA,A,3,12,14,25,29,30,,,,,,,,1.1,0.5,1.0*3F
471$PGLOR,FIX,1.0*3E
472$GPRMC,082139.00,A,4221.502459,N,00133.161161,E,040.0,072.5,111110,,*3C
473$GPGGA,082140.00,4221.505752,N,00133.175676,E,1,06,0.5,809.0,M,,M,,*7F
474$PGLOR,STA,082140.00,1.150,0.000,-1155,1,5,3,PWR,D,N*4D
475$PGLOR,SIO,TxERR,0,RxERR,0,TxCNT,292,RxCNT,1508,DTMS,1002,DTIN,2,DTOUT,310*4E
476$GPGSA,A,3,12,14,25,29,30,31,,,,,,,1.1,0.5,1.0*3D
477$PGLOR,FIX,1.0*3E
478$GPRMC,082140.00,A,4221.505752,N,00133.175676,E,039.9,072.8,111110,,*33
479$GPGGA,082141.00,4221.509213,N,00133.189934,E,1,06,0.5,809.0,M,,M,,*78
480$PGLOR,STA,082141.00,1.150,0.000,-1155,1,5,3,PWR,D,N*4C
481$PGLOR,SIO,TxERR,0,RxERR,0,TxCNT,368,RxCNT,1732,DTMS,1000,DTIN,1,DTOUT,310*40
482$GPGSA,A,3,12,14,25,29,30,31,,,,,,,1.1,0.5,1.0*3D
483$PGLOR,FIX,1.0*3E
484$GPRMC,082141.00,A,4221.509213,N,00133.189934,E,039.7,072.3,111110,,*31
485$GPGGA,082142.00,4221.512472,N,00133.204075,E,1,06,0.5,809.0,M,,M,,*7A
486$PGLOR,STA,082142.00,1.150,0.000,-1154,1,5,3,PWR,D,N*4E
487$PGLOR,SIO,TxERR,0,RxERR,0,TxCNT,220,RxCNT,1316,DTMS,1000,DTIN,2,DTOUT,310*4C
488$GPGSA,A,3,12,14,25,29,30,31,,,,,,,1.1,0.5,1.0*3D
489$PGLOR,FIX,1.0*3E
490$GPRMC,082142.00,A,4221.512472,N,00133.204075,E,039.6,072.8,111110,,*39
491$GPGGA,082143.00,4221.514925,N,00133.218455,E,1,06,0.5,809.0,M,,M,,*79
492$PGLOR,STA,082143.00,1.150,0.000,-1154,1,5,3,PWR,D,N*4F
493$PGLOR,SIO,TxERR,0,RxERR,0,TxCNT,72,RxCNT,1312,DTMS,1000,DTIN,1,DTOUT,310*7E
494$GPGSA,A,3,12,14,25,29,30,31,,,,,,,1.1,0.5,1.0*3D
495$PGLOR,FIX,1.0*3E
496$GPRMC,082143.00,A,4221.514925,N,00133.218455,E,039.4,076.9,111110,,*3D
497$GPGGA,082144.00,4221.516334,N,00133.233005,E,1,06,0.5,809.0,M,,M,,*7E
498$PGLOR,STA,082144.00,1.150,0.000,-1154,1,5,0,PWR,D,N*4B
499$PGLOR,SIO,TxERR,0,RxERR,0,TxCNT,248,RxCNT,1808,DTMS,1000,DTIN,1,DTOUT,310*45
500$GPGSV,3,1,09,29,84,219,46,25,64,061,47,30,64,317,47,31,44,308,46*70
501$GPGSV,3,2,09,12,28,086,49,14,24,229,42,02,18,046,,21,15,172,*7D
502$GPGSV,3,3,09,09,00,145,*49
503$GPGSA,A,3,12,14,25,29,30,31,,,,,,,1.1,0.5,1.0*3D
504$PGLOR,FIX,1.0*3E
505$GPRMC,082144.00,A,4221.516334,N,00133.233005,E,039.4,076.9,111110,,*3A
506$GPGGA,082145.00,4221.515945,N,00133.247629,E,1,06,1.0,809.0,M,,M,,*7F
507$PGLOR,STA,082145.00,1.150,0.000,-1157,1,10,1,PWR,D,N*7C
508$PGLOR,SIO,TxERR,0,RxERR,0,TxCNT,200,RxCNT,1336,DTMS,1000,DTIN,1,DTOUT,310*4F
509$GPGSA,A,3,12,14,25,29,30,31,,,,,,,2.2,1.0,2.0*3A
510$PGLOR,FIX,1.0*3E
511$GPRMC,082145.00,A,4221.515945,N,00133.247629,E,038.9,091.8,111110,,*3B
512$GPGGA,082146.00,4221.514509,N,00133.262108,E,1,06,0.5,810.0,M,,M,,*76
513$PGLOR,STA,082146.00,1.150,0.000,-1154,1,5,1,PWR,D,N*48
514$PGLOR,SIO,TxERR,0,RxERR,0,TxCNT,180,RxCNT,1680,DTMS,1000,DTIN,1,DTOUT,310*4C
515$GPGSA,A,3,12,14,25,29,30,31,,,,,,,1.1,0.5,1.0*3D
516$PGLOR,FIX,1.0*3E
517$GPRMC,082146.00,A,4221.514509,N,00133.262108,E,038.7,097.4,111110,,*3A
518$GPGGA,082147.00,4221.512993,N,00133.276509,E,1,06,0.5,810.0,M,,M,,*7E
519$PGLOR,STA,082147.00,1.150,0.000,-1154,1,5,3,PWR,D,N*4B
520$PGLOR,SIO,TxERR,0,RxERR,0,TxCNT,232,RxCNT,1608,DTMS,1000,DTIN,1,DTOUT,310*46
521$GPGSA,A,3,12,14,25,29,30,31,,,,,,,1.1,0.5,1.0*3D
522$PGLOR,FIX,1.0*3E
523$GPRMC,082147.00,A,4221.512993,N,00133.276509,E,038.6,097.5,111110,,*32
524$GPGGA,082148.00,4221.511282,N,00133.290704,E,1,06,0.5,810.0,M,,M,,*7E
525$PGLOR,STA,082148.00,1.150,0.000,-1154,1,5,3,PWR,D,N*44
526$PGLOR,SIO,TxERR,0,RxERR,0,TxCNT,192,RxCNT,1488,DTMS,1000,DTIN,1,DTOUT,310*45
527$GPGSA,A,3,12,14,25,29,30,31,,,,,,,1.1,0.5,1.0*3D
528$PGLOR,FIX,1.0*3E
529$GPRMC,082148.00,A,4221.511282,N,00133.290704,E,038.4,099.1,111110,,*3A
530$GPGGA,082149.00,4221.511099,N,00133.304924,E,1,06,0.5,810.0,M,,M,,*77
531$PGLOR,STA,082149.00,1.150,0.000,-1155,1,5,1,PWR,D,N*46
532$PGLOR,SIO,TxERR,0,RxERR,0,TxCNT,208,RxCNT,1716,DTMS,1000,DTIN,1,DTOUT,310*41
533$GPGSV,3,1,09,29,84,219,46,25,64,061,46,30,64,317,47,31,44,308,47*70
534$GPGSV,3,2,09,12,28,086,49,14,24,229,41,02,18,046,,21,15,172,*7E
535$GPGSV,3,3,09,09,00,145,*49
536$GPGSA,A,3,12,14,25,29,30,31,,,,,,,1.1,0.5,1.0*3D
537$PGLOR,FIX,1.0*3E
538$GPRMC,082149.00,A,4221.511099,N,00133.304924,E,038.3,090.3,111110,,*3F
539$GPGGA,082150.00,4221.512023,N,00133.319043,E,1,06,0.5,810.0,M,,M,,*79
540$PGLOR,STA,082150.00,1.150,0.000,-1154,1,5,1,PWR,D,N*4F
541$PGLOR,SIO,TxERR,0,RxERR,0,TxCNT,288,RxCNT,1540,DTMS,1000,DTIN,2,DTOUT,310*4B
542$GPGSA,A,3,12,14,25,29,30,31,,,,,,,1.1,0.5,1.0*3D
543$PGLOR,FIX,1.0*3E
544$GPRMC,082150.00,A,4221.512023,N,00133.319043,E,038.1,082.9,111110,,*3A
545$GPGGA,082151.00,4221.513464,N,00133.333064,E,1,07,0.5,811.0,M,,M,,*73
546$PGLOR,STA,082151.00,1.150,0.000,-1155,1,5,0,PWR,D,N*4E
547$PGLOR,SIO,TxERR,0,RxERR,0,TxCNT,324,RxCNT,1716,DTMS,1001,DTIN,1,DTOUT,310*4F
548$PGLOR,PFM,HAL,P,0,0,100,0,RF,F,-123,0.4,25,RTC,23.8,P,STO,P,LTO,F*4C
549$GPGSA,A,3,12,14,21,25,29,30,31,,,,,,1.1,0.5,1.0*3E
550$PGLOR,FIX,1.0*3E
551$GPRMC,082151.00,A,4221.513464,N,00133.333064,E,038.1,082.9,111110,,*30
552$GPGGA,082152.00,4221.517478,N,00133.346237,E,1,07,1.0,811.0,M,,M,,*7B
553$PGLOR,STA,082152.00,1.150,0.000,-1157,1,10,1,PWR,D,N*7A
554$PGLOR,SIO,TxERR,0,RxERR,0,TxCNT,216,RxCNT,1876,DTMS,1000,DTIN,1,DTOUT,310*47
555$GPGSA,A,3,12,14,21,25,29,30,31,,,,,,2.2,1.0,2.0*39
556$PGLOR,FIX,1.0*3E
557$GPRMC,082152.00,A,4221.517478,N,00133.346237,E,038.1,067.0,111110,,*3E
558$GPGGA,082153.00,4221.521626,N,00133.359496,E,1,07,0.5,811.0,M,,M,,*71
559$PGLOR,STA,082153.00,1.150,0.000,-1155,1,5,3,PWR,D,N*4F
560$PGLOR,SIO,TxERR,0,RxERR,0,TxCNT,364,RxCNT,1852,DTMS,1002,DTIN,1,DTOUT,310*47
561$GPGSA,A,3,12,14,21,25,29,30,31,,,,,,1.1,0.5,1.0*3E
562$PGLOR,FIX,1.0*3E
563$GPRMC,082153.00,A,4221.521626,N,00133.359496,E,038.2,065.8,111110,,*39
564$GPGGA,082154.00,4221.525811,N,00133.372941,E,1,07,0.5,812.0,M,,M,,*75
565$PGLOR,STA,082154.00,1.150,0.000,-1154,1,5,3,PWR,D,N*49
566$PGLOR,SIO,TxERR,0,RxERR,0,TxCNT,236,RxCNT,1680,DTMS,999,DTIN,1,DTOUT,310*7A
567$GPGSV,3,1,09,29,84,219,46,25,64,061,46,30,64,317,47,31,44,308,47*70
568$GPGSV,3,2,09,12,28,086,49,14,24,229,41,21,15,172,32,02,18,046,*7F
569$GPGSV,3,3,09,09,00,145,*49
570$GPGSA,A,3,12,14,21,25,29,30,31,,,,,,1.1,0.5,1.0*3E
571$PGLOR,FIX,1.0*3E
572$GPRMC,082154.00,A,4221.525811,N,00133.372941,E,038.4,065.5,111110,,*35
573$GPGGA,082155.00,4221.530346,N,00133.386326,E,1,07,0.5,812.0,M,,M,,*79
574$PGLOR,STA,082155.00,1.150,0.000,-1154,1,5,3,PWR,D,N*48
575$PGLOR,SIO,TxERR,0,RxERR,0,TxCNT,204,RxCNT,1156,DTMS,1002,DTIN,1,DTOUT,310*4D
576$GPGSA,A,3,12,14,21,25,29,30,31,,,,,,1.1,0.5,1.0*3E
577$PGLOR,FIX,1.0*3E
578$GPRMC,082155.00,A,4221.530346,N,00133.386326,E,038.7,063.9,111110,,*30
579$GPGGA,082156.00,4221.535174,N,00133.399585,E,1,07,0.5,812.0,M,,M,,*7D
580$PGLOR,STA,082156.00,1.150,0.000,-1154,1,5,3,PWR,D,N*4B
581$PGLOR,SIO,TxERR,0,RxERR,0,TxCNT,232,RxCNT,1292,DTMS,1000,DTIN,1,DTOUT,310*41
582$GPGSA,A,3,12,14,21,25,29,30,31,,,,,,1.1,0.5,1.0*3E
583$PGLOR,FIX,1.0*3E
584$GPRMC,082156.00,A,4221.535174,N,00133.399585,E,038.8,062.4,111110,,*37
585$GPGGA,082157.00,4221.540193,N,00133.412742,E,1,07,0.5,813.0,M,,M,,*7B
586$PGLOR,STA,082157.00,1.150,0.000,-1153,1,5,3,PWR,D,N*4D
587$PGLOR,SIO,TxERR,0,RxERR,0,TxCNT,240,RxCNT,1092,DTMS,999,DTIN,1,DTOUT,310*7E
588$GPGSA,A,3,12,14,21,25,29,30,31,,,,,,1.1,0.5,1.0*3E
589$PGLOR,FIX,1.0*3E
590$GPRMC,082157.00,A,4221.540193,N,00133.412742,E,038.9,061.0,111110,,*36
591$GPGGA,082158.00,4221.545142,N,00133.425966,E,1,07,0.5,813.0,M,,M,,*71
592$PGLOR,STA,082158.00,1.150,0.000,-1153,1,5,3,PWR,D,N*42
593$PGLOR,SIO,TxERR,0,RxERR,0,TxCNT,204,RxCNT,1252,DTMS,1000,DTIN,2,DTOUT,310*4B
594$GPGSA,A,3,12,14,21,25,29,30,31,,,,,,1.1,0.5,1.0*3E
595$PGLOR,FIX,1.0*3E
596$GPRMC,082158.00,A,4221.545142,N,00133.425966,E,039.0,061.7,111110,,*33
597$GPGGA,082159.00,4221.550084,N,00133.439347,E,1,07,0.5,814.0,M,,M,,*7C
598$PGLOR,STA,082159.00,1.150,0.000,-1152,1,5,3,PWR,D,N*42
599$PGLOR,SIO,TxERR,0,RxERR,0,TxCNT,232,RxCNT,1484,DTMS,1001,DTIN,1,DTOUT,310*41
600$GPGSV,3,1,09,29,84,219,46,25,64,061,46,30,64,317,47,31,44,308,47*70
601$GPGSV,3,2,09,12,28,086,49,14,23,229,40,21,15,172,36,02,18,046,*7D
602$GPGSV,3,3,09,09,00,145,*49
603$GPGSA,A,3,12,14,21,25,29,30,31,,,,,,1.1,0.5,1.0*3E
604$PGLOR,FIX,1.0*3E
605$GPRMC,082159.00,A,4221.550084,N,00133.439347,E,039.3,062.9,111110,,*37
606$GPGGA,082200.00,4221.555004,N,00133.452720,E,1,07,0.5,814.0,M,,M,,*76
607$PGLOR,STA,082200.00,1.150,0.000,-1152,1,5,3,PWR,D,N*4D
608$PGLOR,SIO,TxERR,0,RxERR,0,TxCNT,300,RxCNT,1156,DTMS,1000,DTIN,1,DTOUT,310*4A
609$GPGSA,A,3,12,14,21,25,29,30,31,,,,,,1.1,0.5,1.0*3E
610$PGLOR,FIX,1.0*3E
611$GPRMC,082200.00,A,4221.555004,N,00133.452720,E,039.2,062.7,111110,,*32
612$GPGGA,082201.00,4221.559230,N,00133.466593,E,1,07,0.5,814.0,M,,M,,*73
613$PGLOR,STA,082201.00,1.150,0.000,-1152,1,5,1,PWR,D,N*4E
614$PGLOR,SIO,TxERR,0,RxERR,0,TxCNT,308,RxCNT,1592,DTMS,998,DTIN,1,DTOUT,310*77
615$GPGSA,A,3,12,14,21,25,29,30,31,,,,,,1.1,0.5,1.0*3E
616$PGLOR,FIX,1.0*3E
617$GPRMC,082201.00,A,4221.559230,N,00133.466593,E,039.3,067.9,111110,,*3D
618$GPGGA,082202.00,4221.562403,N,00133.481020,E,1,07,0.5,814.0,M,,M,,*7A
619$PGLOR,STA,082202.00,1.150,0.000,-1152,1,5,1,PWR,D,N*4D
620$PGLOR,SIO,TxERR,0,RxERR,0,TxCNT,244,RxCNT,1548,DTMS,1001,DTIN,1,DTOUT,310*41
621$GPGSA,A,3,12,14,21,25,29,30,31,,,,,,1.1,0.5,1.0*3E
622$PGLOR,FIX,1.0*3E
623$GPRMC,082202.00,A,4221.562403,N,00133.481020,E,039.5,073.9,111110,,*37
624$GPGGA,082203.00,4221.565540,N,00133.495717,E,1,06,0.5,815.0,M,,M,,*7C
625$PGLOR,STA,082203.00,1.150,0.000,-1153,1,5,0,PWR,D,N*4C
626$PGLOR,SIO,TxERR,0,RxERR,0,TxCNT,308,RxCNT,1480,DTMS,997,DTIN,1,DTOUT,310*7A
627$GPGSA,A,3,12,14,21,25,29,30,31,,,,,,1.1,0.5,1.0*3E
628$PGLOR,FIX,1.0*3E
629$GPRMC,082203.00,A,4221.565540,N,00133.495717,E,039.5,073.9,111110,,*31
630$GPGGA,082204.00,4221.567570,N,00133.510619,E,1,06,0.5,815.0,M,,M,,*79
631$PGLOR,STA,082204.00,1.150,0.000,-1156,1,5,1,PWR,D,N*4F
632$PGLOR,SIO,TxERR,0,RxERR,0,TxCNT,236,RxCNT,1800,DTMS,1001,DTIN,1,DTOUT,310*45
633$GPGSV,3,1,09,29,84,219,46,25,64,061,46,30,64,317,47,31,44,308,47*70
634$GPGSV,3,2,09,12,28,086,49,14,23,229,40,21,15,172,30,02,18,046,*7B
635$GPGSV,3,3,09,09,00,145,*49
636$GPGSA,A,3,12,14,21,25,29,30,31,,,,,,1.1,0.5,1.0*3E
637$PGLOR,FIX,1.0*3E
638$GPRMC,082204.00,A,4221.567570,N,00133.510619,E,039.5,080.7,111110,,*36
639$GPGGA,082205.00,4221.569102,N,00133.525214,E,1,06,0.5,815.0,M,,M,,*78
640$PGLOR,STA,082205.00,1.150,0.000,-1154,1,5,3,PWR,D,N*4E
641$PGLOR,SIO,TxERR,0,RxERR,0,TxCNT,284,RxCNT,1452,DTMS,999,DTIN,1,DTOUT,310*7E
642$GPGSA,A,3,12,14,25,29,30,31,,,,,,,1.1,0.5,1.0*3D
643$PGLOR,FIX,1.0*3E
644$GPRMC,082205.00,A,4221.569102,N,00133.525214,E,039.0,083.4,111110,,*32
645$GPGGA,082206.00,4221.569782,N,00133.539811,E,1,06,0.5,815.0,M,,M,,*77
646$PGLOR,STA,082206.00,1.150,0.000,-1153,1,5,3,PWR,D,N*4A
647$PGLOR,SIO,TxERR,0,RxERR,0,TxCNT,192,RxCNT,1652,DTMS,1006,DTIN,2,DTOUT,310*45
648$GPGSA,A,3,12,14,25,29,30,31,,,,,,,1.1,0.5,1.0*3D
649$PGLOR,FIX,1.0*3E
650$GPRMC,082206.00,A,4221.569782,N,00133.539811,E,038.9,088.0,111110,,*3A
651$GPGGA,082207.00,4221.569703,N,00133.554431,E,1,06,0.5,815.0,M,,M,,*7A
652$PGLOR,STA,082207.00,1.150,0.000,-1155,1,5,3,PWR,D,N*4D
653$PGLOR,SIO,TxERR,0,RxERR,0,TxCNT,208,RxCNT,1600,DTMS,994,DTIN,1,DTOUT,310*72
654$GPGSA,A,3,12,14,25,29,30,31,,,,,,,1.1,0.5,1.0*3D
655$PGLOR,FIX,1.0*3E
656$GPRMC,082207.00,A,4221.569703,N,00133.554431,E,039.1,092.1,111110,,*34
657$GPGGA,082208.00,4221.568606,N,00133.569025,E,1,06,0.5,815.0,M,,M,,*7F
658$PGLOR,STA,082208.00,1.150,0.000,-1155,1,5,1,PWR,D,N*40
659$PGLOR,SIO,TxERR,0,RxERR,0,TxCNT,84,RxCNT,1404,DTMS,1006,DTIN,1,DTOUT,310*71
660$GPGSA,A,3,12,14,25,29,30,31,,,,,,,1.1,0.5,1.0*3D
661$PGLOR,FIX,1.0*3E
662$GPRMC,082208.00,A,4221.568606,N,00133.569025,E,039.2,098.0,111110,,*39
663$GPGGA,082209.00,4221.567373,N,00133.583686,E,1,06,0.5,815.0,M,,M,,*7D
664$PGLOR,STA,082209.00,1.150,0.000,-1156,1,5,3,PWR,D,N*40
665$PGLOR,SIO,TxERR,0,RxERR,0,TxCNT,336,RxCNT,1880,DTMS,994,DTIN,1,DTOUT,310*78
666$GPGSV,3,1,09,29,84,219,46,25,64,062,46,30,64,317,47,31,44,308,47*73
667$GPGSV,3,2,09,12,28,086,49,14,23,229,40,02,18,046,,21,15,172,*78
668$GPGSV,3,3,09,09,00,145,*49
669$GPGSA,A,3,12,14,25,29,30,31,,,,,,,1.1,0.5,1.0*3D
670$PGLOR,FIX,1.0*3E
671$GPRMC,082209.00,A,4221.567373,N,00133.583686,E,039.4,098.2,111110,,*3F
672$GPGGA,082210.00,4221.566080,N,00133.598470,E,1,06,0.5,815.0,M,,M,,*7A
673$PGLOR,STA,082210.00,1.150,0.000,-1156,1,5,3,PWR,D,N*48
674$PGLOR,SIO,TxERR,0,RxERR,0,TxCNT,276,RxCNT,1572,DTMS,1000,DTIN,2,DTOUT,310*4B
675$GPGSA,A,3,12,14,25,29,30,31,,,,,,,1.1,0.5,1.0*3D
676$PGLOR,FIX,1.0*3E
677$GPRMC,082210.00,A,4221.566080,N,00133.598470,E,039.7,097.9,111110,,*3F
678$GPGGA,082211.00,4221.565309,N,00133.613543,E,1,06,0.5,814.0,M,,M,,*7A
679$PGLOR,STA,082211.00,1.150,0.000,-1157,1,5,3,PWR,D,N*48
680$PGLOR,SIO,TxERR,0,RxERR,0,TxCNT,264,RxCNT,1564,DTMS,1000,DTIN,3,DTOUT,310*4E
681$GPGSA,A,3,12,14,25,29,30,31,,,,,,,1.1,0.5,1.0*3D
682$PGLOR,FIX,1.0*3E
683$GPRMC,082211.00,A,4221.565309,N,00133.613543,E,039.9,094.4,111110,,*3E
684$GPGGA,082212.00,4221.564706,N,00133.628681,E,1,06,0.5,814.0,M,,M,,*76
685$PGLOR,STA,082212.00,1.150,0.000,-1158,1,5,3,PWR,D,N*44
686$PGLOR,SIO,TxERR,0,RxERR,0,TxCNT,304,RxCNT,1728,DTMS,1000,DTIN,1,DTOUT,310*41
687$GPGSA,A,3,12,14,25,29,30,31,,,,,,,1.1,0.5,1.0*3D
688$PGLOR,FIX,1.0*3E
689$GPRMC,082212.00,A,4221.564706,N,00133.628681,E,040.0,093.1,111110,,*37
690$GPGGA,082213.00,4221.564675,N,00133.643510,E,1,06,1.0,814.0,M,,M,,*70
691$PGLOR,STA,082213.00,1.150,0.000,-1159,1,10,3,PWR,D,N*70
692$PGLOR,SIO,TxERR,0,RxERR,0,TxCNT,288,RxCNT,1596,DTMS,1000,DTIN,1,DTOUT,310*43
693$GPGSA,A,3,12,14,25,29,30,31,,,,,,,2.2,1.0,2.0*3A
694$PGLOR,FIX,1.0*3E
695$GPRMC,082213.00,A,4221.564675,N,00133.643510,E,039.6,089.9,111110,,*3E
696$GPGGA,082214.00,4221.564932,N,00133.657921,E,1,06,0.5,814.0,M,,M,,*74
697$PGLOR,STA,082214.00,1.150,0.000,-1159,1,5,3,PWR,D,N*43
698$PGLOR,SIO,TxERR,0,RxERR,0,TxCNT,400,RxCNT,2004,DTMS,1005,DTIN,1,DTOUT,310*4D
699$GPGSV,3,1,09,29,85,219,47,30,65,317,47,25,64,062,47,31,44,308,47*73
700$GPGSV,3,2,09,12,28,086,49,14,23,229,39,02,18,046,,21,15,172,*76
701$GPGSV,3,3,09,09,00,145,*49
702$GPGSA,A,3,12,14,25,29,30,31,,,,,,,1.1,0.5,1.0*3D
703$PGLOR,FIX,1.0*3E
704$GPRMC,082214.00,A,4221.564932,N,00133.657921,E,038.5,087.8,111110,,*33
705$GPGGA,082215.00,4221.565271,N,00133.682578,E,1,06,0.5,814.0,M,,M,,*70
706$PGLOR,STA,082215.00,1.150,0.000,-1160,1,5,3,PWR,D,N*48
707$PGLOR,SIO,TxERR,0,RxERR,0,TxCNT,360,RxCNT,1816,DTMS,995,DTIN,2,DTOUT,310*76
708$GPGSA,A,3,12,14,25,29,30,31,,,,,,,1.1,0.5,1.0*3D
709$PGLOR,FIX,1.0*3E
710$GPRMC,082215.00,A,4221.565271,N,00133.682578,E,037.0,087.0,111110,,*35
711$GPGGA,082216.00,4221.566044,N,00133.695872,E,1,06,0.5,815.0,M,,M,,*74
712$PGLOR,STA,082216.00,1.150,0.000,-1159,1,5,3,PWR,D,N*41
713$PGLOR,SIO,TxERR,0,RxERR,0,TxCNT,288,RxCNT,1464,DTMS,1000,DTIN,1,DTOUT,310*4F
714$GPGSA,A,3,12,14,25,29,30,31,,,,,,,1.1,0.5,1.0*3D
715$PGLOR,FIX,1.0*3E
716$GPRMC,082216.00,A,4221.566044,N,00133.695872,E,035.9,086.2,111110,,*38
717$GPGGA,082217.00,4221.567272,N,00133.709115,E,1,07,0.5,815.0,M,,M,,*7E
718$PGLOR,STA,082217.00,1.150,0.000,-1159,1,5,3,PWR,D,N*40
719$PGLOR,SIO,TxERR,0,RxERR,0,TxCNT,292,RxCNT,1200,DTMS,1004,DTIN,1,DTOUT,310*44
720$GPGSA,A,3,02,12,14,25,29,30,31,,,,,,1.1,0.5,1.0*3F
721$PGLOR,FIX,1.0*3E
722$GPRMC,082217.00,A,4221.567272,N,00133.709115,E,035.9,084.6,111110,,*35
723$GPGGA,082218.00,4221.568979,N,00133.722094,E,1,07,0.5,815.0,M,,M,,*7F
724$PGLOR,STA,082218.00,1.150,0.000,-1159,1,5,3,PWR,D,N*4F
725$PGLOR,SIO,TxERR,0,RxERR,0,TxCNT,368,RxCNT,1416,DTMS,1000,DTIN,1,DTOUT,310*45
726$GPGSA,A,3,02,12,14,25,29,30,31,,,,,,1.1,0.5,1.0*3F
727$PGLOR,FIX,1.0*3E
728$GPRMC,082218.00,A,4221.568979,N,00133.722094,E,035.3,082.6,111110,,*38
729$GPGGA,082219.00,4221.570970,N,00133.734617,E,1,07,0.5,815.0,M,,M,,*74
730$PGLOR,STA,082219.00,1.150,0.000,-1159,1,5,3,PWR,D,N*4E
731$PGLOR,SIO,TxERR,0,RxERR,0,TxCNT,192,RxCNT,1388,DTMS,998,DTIN,1,DTOUT,310*7B
732$GPGSV,3,1,09,29,85,219,48,30,65,317,47,25,64,062,47,31,44,308,47*7C
733$GPGSV,3,2,09,12,28,086,48,14,23,229,39,02,18,045,38,21,15,172,*7F
734$GPGSV,3,3,09,09,00,145,*49
735$GPGSA,A,3,02,12,14,25,29,30,31,,,,,,1.1,0.5,1.0*3F
736$PGLOR,FIX,1.0*3E
737$GPRMC,082219.00,A,4221.570970,N,00133.734617,E,034.3,080.7,111110,,*31
738$GPGGA,082220.00,4221.573152,N,00133.746854,E,1,07,0.5,815.0,M,,M,,*79
739$PGLOR,STA,082220.00,1.150,0.000,-1159,1,5,3,PWR,D,N*44
740$PGLOR,SIO,TxERR,0,RxERR,0,TxCNT,220,RxCNT,1712,DTMS,1001,DTIN,1,DTOUT,310*4E
741$GPGSA,A,3,02,12,14,25,29,30,31,,,,,,1.1,0.5,1.0*3F
742$PGLOR,FIX,1.0*3E
743$GPRMC,082220.00,A,4221.573152,N,00133.746854,E,033.7,079.2,111110,,*3C
744$GPGGA,082221.00,4221.575469,N,00133.758807,E,1,06,0.5,816.0,M,,M,,*78
745$PGLOR,STA,082221.00,1.150,0.000,-1158,1,5,3,PWR,D,N*44
746$PGLOR,SIO,TxERR,0,RxERR,0,TxCNT,176,RxCNT,1268,DTMS,998,DTIN,2,DTOUT,310*7D
747$GPGSA,A,3,02,12,14,25,29,30,31,,,,,,1.1,0.5,1.0*3F
748$PGLOR,FIX,1.0*3E
749$GPRMC,082221.00,A,4221.575469,N,00133.758807,E,033.0,078.0,111110,,*3B
750$GPGGA,082222.00,4221.577823,N,00133.770698,E,1,06,0.5,816.0,M,,M,,*79
751$PGLOR,STA,082222.00,1.150,0.000,-1157,1,5,3,PWR,D,N*48
752$PGLOR,SIO,TxERR,0,RxERR,0,TxCNT,220,RxCNT,1304,DTMS,1000,DTIN,1,DTOUT,310*4C
753$GPGSA,A,3,02,12,14,25,29,30,31,,,,,,1.1,0.5,1.0*3F
754$PGLOR,FIX,1.0*3E
755$GPRMC,082222.00,A,4221.577823,N,00133.770698,E,032.8,077.3,111110,,*3F
756$GPGGA,082223.00,4221.580170,N,00133.782675,E,1,06,0.5,816.0,M,,M,,*71
757$PGLOR,STA,082223.00,1.150,0.000,-1157,1,5,3,PWR,D,N*49
758$PGLOR,SIO,TxERR,0,RxERR,0,TxCNT,180,RxCNT,1448,DTMS,1000,DTIN,1,DTOUT,310*4A
759$GPGSA,A,3,02,12,14,25,29,30,31,,,,,,1.1,0.5,1.0*3F
760$PGLOR,FIX,1.0*3E
761$GPRMC,082223.00,A,4221.580170,N,00133.782675,E,033.0,077.0,111110,,*3D
762$GPGGA,082224.00,4221.582255,N,00133.794775,E,1,06,0.5,816.0,M,,M,,*76
763$PGLOR,STA,082224.00,1.150,0.000,-1156,1,5,3,PWR,D,N*4F
764$PGLOR,SIO,TxERR,0,RxERR,0,TxCNT,248,RxCNT,1688,DTMS,1000,DTIN,1,DTOUT,310*43
765$GPGSV,3,1,09,29,85,219,48,30,65,317,47,25,64,062,47,31,44,308,47*7C
766$GPGSV,3,2,09,12,28,086,49,14,23,229,39,02,18,045,44,21,15,172,*75
767$GPGSV,3,3,09,09,00,145,*49
768$GPGSA,A,3,02,12,14,25,29,30,31,,,,,,1.1,0.5,1.0*3F
769$PGLOR,FIX,1.0*3E
770$GPRMC,082224.00,A,4221.582255,N,00133.794775,E,033.1,077.9,111110,,*32
771$GPGGA,082225.00,4221.583724,N,00133.807019,E,1,07,0.5,817.0,M,,M,,*7D
772$PGLOR,STA,082225.00,1.150,0.000,-1156,1,5,3,PWR,D,N*4E
773$PGLOR,SIO,TxERR,0,RxERR,0,TxCNT,192,RxCNT,1396,DTMS,1002,DTIN,2,DTOUT,310*4C
774$GPGSA,A,3,02,12,14,25,29,30,31,,,,,,1.1,0.5,1.0*3F
775$PGLOR,FIX,1.0*3E
776$GPRMC,082225.00,A,4221.583724,N,00133.807019,E,033.1,080.5,111110,,*3D
777$GPGGA,082226.00,4221.584306,N,00133.819381,E,1,07,0.5,817.0,M,,M,,*70
778$PGLOR,STA,082226.00,1.150,0.000,-1156,1,5,3,PWR,D,N*4D
779$PGLOR,SIO,TxERR,0,RxERR,0,TxCNT,204,RxCNT,1704,DTMS,1010,DTIN,1,DTOUT,310*4F
780$GPGSA,A,3,02,12,14,25,29,30,31,,,,,,1.1,0.5,1.0*3F
781$PGLOR,FIX,1.0*3E
782$GPRMC,082226.00,A,4221.584306,N,00133.819381,E,033.0,084.4,111110,,*34
783$GPGGA,082227.00,4221.582022,N,00133.831808,E,1,07,0.5,817.0,M,,M,,*72
784$PGLOR,STA,082227.00,1.150,0.000,-1157,1,5,1,PWR,D,N*4F
785$PGLOR,SIO,TxERR,0,RxERR,0,TxCNT,120,RxCNT,1124,DTMS,991,DTIN,1,DTOUT,310*7F
786$GPGSA,A,3,02,12,14,25,29,30,31,,,,,,1.1,0.5,1.0*3F
787$PGLOR,FIX,1.0*3E
788$GPRMC,082227.00,A,4221.582022,N,00133.831808,E,033.2,099.2,111110,,*3E
789$GPGGA,082228.00,4221.579590,N,00133.844243,E,1,07,0.5,817.0,M,,M,,*72
790$PGLOR,STA,082228.00,1.150,0.000,-1157,1,5,3,PWR,D,N*42
791$PGLOR,SIO,TxERR,0,RxERR,0,TxCNT,180,RxCNT,1524,DTMS,999,DTIN,1,DTOUT,310*79
792$GPGSA,A,3,02,12,14,25,29,30,31,,,,,,1.1,0.5,1.0*3F
793$PGLOR,FIX,1.0*3E
794$GPRMC,082228.00,A,4221.579590,N,00133.844243,E,033.7,100.7,111110,,*3F
795$GPGGA,082229.00,4221.576774,N,00133.856676,E,1,07,0.5,818.0,M,,M,,*7A
796$PGLOR,STA,082229.00,1.150,0.000,-1157,1,5,3,PWR,D,N*43
797$PGLOR,SIO,TxERR,0,RxERR,0,TxCNT,196,RxCNT,1568,DTMS,1001,DTIN,1,DTOUT,310*4F
798$GPGSV,3,1,09,29,85,219,48,30,65,317,47,25,64,062,46,31,44,308,47*7D
799$GPGSV,3,2,09,12,28,086,48,14,23,229,42,02,18,045,43,21,15,172,*7F
800$GPGSV,3,3,09,09,00,145,*49
801$GPGSA,A,3,02,12,14,25,29,30,31,,,,,,1.1,0.5,1.0*3F
802$PGLOR,FIX,1.0*3E
803$GPRMC,082229.00,A,4221.576774,N,00133.856676,E,034.2,103.0,111110,,*3E
804$GPGGA,082230.00,4221.573598,N,00133.869199,E,1,07,0.5,818.0,M,,M,,*7D
805$PGLOR,STA,082230.00,1.150,0.000,-1158,1,5,3,PWR,D,N*44
806$PGLOR,SIO,TxERR,0,RxERR,0,TxCNT,192,RxCNT,1416,DTMS,999,DTIN,1,DTOUT,310*7A
807$GPGSA,A,3,02,12,14,25,29,30,31,,,,,,1.1,0.5,1.0*3F
808$PGLOR,FIX,1.0*3E
809$GPRMC,082230.00,A,4221.573598,N,00133.869199,E,034.9,105.0,111110,,*34
810$GPGGA,082231.00,4221.570203,N,00133.881802,E,1,07,0.5,818.0,M,,M,,*77
811$PGLOR,STA,082231.00,1.150,0.000,-1158,1,5,3,PWR,D,N*45
812$PGLOR,SIO,TxERR,0,RxERR,0,TxCNT,208,RxCNT,1696,DTMS,1000,DTIN,2,DTOUT,310*4B
813$GPGSA,A,3,02,12,14,25,29,30,31,,,,,,1.1,0.5,1.0*3F
814$PGLOR,FIX,1.0*3E
815$GPRMC,082231.00,A,4221.570203,N,00133.881802,E,035.4,106.2,111110,,*33
816$GPGGA,082232.00,4221.566704,N,00133.894538,E,1,07,0.5,818.0,M,,M,,*71
817$PGLOR,STA,082232.00,1.150,0.000,-1159,1,5,3,PWR,D,N*47
818$PGLOR,SIO,TxERR,0,RxERR,0,TxCNT,192,RxCNT,1208,DTMS,1006,DTIN,1,DTOUT,310*4D
819$GPGSA,A,3,02,12,14,25,29,30,31,,,,,,1.1,0.5,1.0*3F
820$PGLOR,FIX,1.0*3E
821$GPRMC,082232.00,A,4221.566704,N,00133.894538,E,036.0,107.1,111110,,*30
822$GPGGA,082233.00,4221.563291,N,00133.907404,E,1,06,1.0,819.0,M,,M,,*7D
823$PGLOR,STA,082233.00,1.150,0.000,-1158,1,10,3,PWR,D,N*73
824$PGLOR,SIO,TxERR,0,RxERR,0,TxCNT,200,RxCNT,1268,DTMS,992,DTIN,1,DTOUT,310*76
825$GPGSA,A,3,02,12,14,25,29,30,31,,,,,,2.2,1.0,2.0*38
826$PGLOR,FIX,1.0*3E
827$GPRMC,082233.00,A,4221.563291,N,00133.907404,E,036.3,107.5,111110,,*3F
828$GPGGA,082234.00,4221.559799,N,00133.920345,E,1,06,0.5,819.0,M,,M,,*7D
829$PGLOR,STA,082234.00,1.150,0.000,-1158,1,5,3,PWR,D,N*40
830$PGLOR,SIO,TxERR,0,RxERR,0,TxCNT,356,RxCNT,1472,DTMS,1000,DTIN,2,DTOUT,310*49
831$GPGSV,3,1,09,29,85,219,48,30,65,317,47,25,64,062,46,31,44,308,47*7D
832$GPGSV,3,2,09,12,28,086,48,14,23,229,42,02,18,045,37,21,16,172,*7F
833$GPGSV,3,3,09,09,00,145,*49
834$GPGSA,A,3,02,12,14,25,29,30,31,,,,,,1.1,0.5,1.0*3F
835$PGLOR,FIX,1.0*3E
836$GPRMC,082234.00,A,4221.559799,N,00133.920345,E,036.6,108.0,111110,,*34
837$GPGGA,082235.00,4221.556224,N,00133.933113,E,1,06,0.5,819.0,M,,M,,*73
838$PGLOR,STA,082235.00,1.150,0.000,-1158,1,5,3,PWR,D,N*41
839$PGLOR,SIO,TxERR,0,RxERR,0,TxCNT,288,RxCNT,1148,DTMS,1000,DTIN,1,DTOUT,310*44
840$GPGSA,A,3,02,12,14,25,29,30,31,,,,,,1.1,0.5,1.0*3F
841$PGLOR,FIX,1.0*3E
842$GPRMC,082235.00,A,4221.556224,N,00133.933113,E,036.2,108.9,111110,,*37
843$GPGGA,082236.00,4221.552743,N,00133.945884,E,1,07,0.5,820.0,M,,M,,*7D
844$PGLOR,STA,082236.00,1.150,0.000,-1158,1,5,3,PWR,D,N*42
845$PGLOR,SIO,TxERR,0,RxERR,0,TxCNT,444,RxCNT,1444,DTMS,1003,DTIN,1,DTOUT,310*48
846$GPGSA,A,3,12,14,21,25,29,30,31,,,,,,1.1,0.5,1.0*3E
847$PGLOR,FIX,1.0*3E
848$GPRMC,082236.00,A,4221.552743,N,00133.945884,E,036.1,108.8,111110,,*30
849$GPGGA,082237.00,4221.549314,N,00133.958403,E,1,07,0.5,820.0,M,,M,,*7F
850$PGLOR,STA,082237.00,1.150,0.000,-1159,1,5,3,PWR,D,N*42
851$PGLOR,SIO,TxERR,0,RxERR,0,TxCNT,112,RxCNT,1216,DTMS,999,DTIN,1,DTOUT,310*74
852$GPGSA,A,3,12,14,21,25,29,30,31,,,,,,1.1,0.5,1.0*3E
853$PGLOR,FIX,1.0*3E
854$GPRMC,082237.00,A,4221.549314,N,00133.958403,E,035.3,109.1,111110,,*3B
855$GPGGA,082238.00,4221.546061,N,00133.970833,E,1,07,0.5,820.0,M,,M,,*7B
856$PGLOR,STA,082238.00,1.150,0.000,-1159,1,5,3,PWR,D,N*4D
857$PGLOR,SIO,TxERR,0,RxERR,0,TxCNT,96,RxCNT,1340,DTMS,1000,DTIN,1,DTOUT,310*73
858$GPGSA,A,3,12,14,21,25,29,30,31,,,,,,1.1,0.5,1.0*3E
859$PGLOR,FIX,1.0*3E
860$GPRMC,082238.00,A,4221.546061,N,00133.970833,E,034.9,108.6,111110,,*32
861$GPGGA,082239.00,4221.543333,N,00133.983011,E,1,07,0.5,821.0,M,,M,,*7E
862$PGLOR,STA,082239.00,1.150,0.000,-1160,1,5,3,PWR,D,N*46
863$PGLOR,SIO,TxERR,0,RxERR,0,TxCNT,132,RxCNT,1608,DTMS,1002,DTIN,1,DTOUT,310*47
864$GPGSV,3,1,09,29,85,219,48,30,65,317,47,25,64,062,45,31,44,308,47*7E
865$GPGSV,3,2,09,12,28,086,48,14,23,229,42,21,16,172,34,02,18,045,*7C
866$GPGSV,3,3,09,09,00,145,*49
867$GPGSA,A,3,12,14,21,25,29,30,31,,,,,,1.1,0.5,1.0*3E
868$PGLOR,FIX,1.0*3E
869$GPRMC,082239.00,A,4221.543333,N,00133.983011,E,033.6,106.8,111110,,*3E
870$GPGGA,082240.00,4221.543557,N,00133.995732,E,1,07,1.0,821.0,M,,M,,*71
871$PGLOR,STA,082240.00,1.150,0.000,-1160,1,10,1,PWR,D,N*7E
872$PGLOR,SIO,TxERR,0,RxERR,0,TxCNT,176,RxCNT,1696,DTMS,1000,DTIN,1,DTOUT,310*42
873$GPGSA,A,3,12,14,21,25,29,30,31,,,,,,2.2,1.0,2.0*39
874$PGLOR,FIX,1.0*3E
875$GPRMC,082240.00,A,4221.543557,N,00133.995732,E,033.1,091.6,111110,,*33
876$GPGGA,082241.00,4221.544123,N,00134.008001,E,1,07,1.0,821.0,M,,M,,*7D
877$PGLOR,STA,082241.00,1.150,0.000,-1160,1,10,3,PWR,D,N*7D
878$PGLOR,SIO,TxERR,0,RxERR,0,TxCNT,96,RxCNT,2292,DTMS,998,DTIN,1,DTOUT,310*47
879$GPGSA,A,3,12,14,21,25,29,30,31,,,,,,2.2,1.0,2.0*39
880$PGLOR,FIX,1.0*3E
881$GPRMC,082241.00,A,4221.544123,N,00134.008001,E,032.1,089.2,111110,,*33
882$GPGGA,082242.00,4221.545446,N,00134.020165,E,1,07,0.5,822.0,M,,M,,*77
883$PGLOR,STA,082242.00,1.150,0.000,-1159,1,5,3,PWR,D,N*40
884$PGLOR,SIO,TxERR,0,RxERR,0,TxCNT,124,RxCNT,2312,DTMS,1003,DTIN,1,DTOUT,310*4C
885$GPGSA,A,3,12,14,21,25,29,30,31,,,,,,1.1,0.5,1.0*3E
886$PGLOR,FIX,1.0*3E
887$GPRMC,082242.00,A,4221.545446,N,00134.020165,E,032.2,085.2,111110,,*31
888$GPGGA,082243.00,4221.547709,N,00134.031985,E,1,06,0.5,822.0,M,,M,,*7B
889$PGLOR,STA,082243.00,1.150,0.000,-1159,1,5,3,PWR,D,N*41
890$PGLOR,SIO,TxERR,0,RxERR,0,TxCNT,84,RxCNT,2184,DTMS,998,DTIN,1,DTOUT,310*40
891$GPGSA,A,3,12,14,21,25,29,30,31,,,,,,1.1,0.5,1.0*3E
892$PGLOR,FIX,1.0*3E
893$GPRMC,082243.00,A,4221.547709,N,00134.031985,E,032.3,083.0,111110,,*39
894$GPGGA,082244.00,4221.552701,N,00134.043202,E,1,06,1.0,822.0,M,,M,,*75
895$PGLOR,STA,082244.00,1.150,0.000,-1161,1,10,1,PWR,D,N*7B
896$PGLOR,SIO,TxERR,0,RxERR,0,TxCNT,140,RxCNT,2464,DTMS,997,DTIN,1,DTOUT,310*7D
897$GPGSV,3,1,09,29,85,220,48,30,65,318,46,25,64,062,45,31,45,308,47*7B
898$GPGSV,3,2,09,12,28,086,48,14,23,229,41,21,16,172,42,02,18,045,*7E
899$GPGSV,3,3,09,09,00,145,*49
900$GPGSA,A,3,12,14,21,25,29,30,31,,,,,,2.2,1.0,2.0*39
901$PGLOR,FIX,1.0*3E
902$GPRMC,082244.00,A,4221.552701,N,00134.043202,E,033.4,065.6,111110,,*3B
903$GPGGA,082245.00,4221.557877,N,00134.054310,E,1,06,0.5,823.0,M,,M,,*7E
904$PGLOR,STA,082245.00,1.150,0.000,-1159,1,5,3,PWR,D,N*47
905$PGLOR,SIO,TxERR,0,RxERR,0,TxCNT,92,RxCNT,2152,DTMS,1002,DTIN,1,DTOUT,310*77
906$GPGSA,A,3,12,14,21,25,29,30,31,,,,,,1.1,0.5,1.0*3E
907$PGLOR,FIX,1.0*3E
908$GPRMC,082245.00,A,4221.557877,N,00134.054310,E,034.2,063.5,111110,,*31
909$GPGGA,082246.00,4221.563202,N,00134.065013,E,1,07,0.5,823.0,M,,M,,*71
910$PGLOR,STA,082246.00,1.150,0.000,-1159,1,5,3,PWR,D,N*44
911$PGLOR,SIO,TxERR,0,RxERR,0,TxCNT,96,RxCNT,2172,DTMS,1000,DTIN,1,DTOUT,310*73
912$GPGSA,A,3,12,14,21,25,29,30,31,,,,,,1.1,0.5,1.0*3E
913$PGLOR,FIX,1.0*3E
914$GPRMC,082246.00,A,4221.563202,N,00134.065013,E,033.7,061.5,111110,,*3F
915$GPGGA,082247.00,4221.568529,N,00134.075525,E,1,07,0.5,824.0,M,,M,,*73
916$PGLOR,STA,082247.00,1.150,0.000,-1160,1,5,3,PWR,D,N*4F
917$PGLOR,SIO,TxERR,0,RxERR,0,TxCNT,112,RxCNT,2312,DTMS,1000,DTIN,2,DTOUT,310*49
918$GPGSA,A,3,12,14,21,25,29,30,31,,,,,,1.1,0.5,1.0*3E
919$PGLOR,FIX,1.0*3E
920$GPRMC,082247.00,A,4221.568529,N,00134.075525,E,033.6,060.5,111110,,*3A
921$GPGGA,082248.00,4221.573295,N,00134.086218,E,1,07,0.5,824.0,M,,M,,*73
922$PGLOR,STA,082248.00,1.150,0.000,-1160,1,5,3,PWR,D,N*40
923$PGLOR,SIO,TxERR,0,RxERR,0,TxCNT,96,RxCNT,2192,DTMS,1000,DTIN,1,DTOUT,310*7D
924$GPGSA,A,3,12,14,21,25,29,30,31,,,,,,1.1,0.5,1.0*3E
925$PGLOR,FIX,1.0*3E
926$GPRMC,082248.00,A,4221.573295,N,00134.086218,E,033.2,062.3,111110,,*3A
927$GPGGA,082249.00,4221.577132,N,00134.097236,E,1,07,0.5,824.0,M,,M,,*74
928$PGLOR,STA,082249.00,1.150,0.000,-1160,1,5,3,PWR,D,N*41
929$PGLOR,SIO,TxERR,0,RxERR,0,TxCNT,112,RxCNT,2432,DTMS,1000,DTIN,1,DTOUT,310*4F
930$GPGSV,3,1,09,29,85,220,48,30,65,318,46,25,64,062,45,31,45,308,47*7B
931$GPGSV,3,2,09,12,28,086,48,14,23,229,42,21,16,172,42,02,18,045,*7D
932$GPGSV,3,3,09,09,00,145,*49
933$GPGSA,A,3,12,14,21,25,29,30,31,,,,,,1.1,0.5,1.0*3E
934$PGLOR,FIX,1.0*3E
935$GPRMC,082249.00,A,4221.577132,N,00134.097236,E,032.5,065.8,111110,,*37
936$GPGGA,082250.00,4221.578512,N,00134.109179,E,1,06,0.5,825.0,M,,M,,*7B
937$PGLOR,STA,082250.00,1.150,0.000,-1160,1,5,1,PWR,D,N*4B
938$PGLOR,SIO,TxERR,0,RxERR,0,TxCNT,96,RxCNT,2140,DTMS,998,DTIN,1,DTOUT,310*4B
939$GPGSA,A,3,12,14,21,25,29,30,31,,,,,,1.1,0.5,1.0*3E
940$PGLOR,FIX,1.0*3E
941$GPRMC,082250.00,A,4221.578512,N,00134.109179,E,032.0,078.8,111110,,*31
942$GPGGA,082251.00,4221.579937,N,00134.121150,E,1,06,0.5,825.0,M,,M,,*71
943$PGLOR,STA,082251.00,1.150,0.000,-1159,1,5,3,PWR,D,N*42
944$PGLOR,SIO,TxERR,0,RxERR,0,TxCNT,268,RxCNT,2012,DTMS,1000,DTIN,2,DTOUT,310*44
945$GPGSA,A,3,02,12,14,21,25,29,30,31,,,,,1.1,0.5,1.0*3C
946$PGLOR,FIX,1.0*3E
947$GPRMC,082251.00,A,4221.579937,N,00134.121150,E,032.2,079.2,111110,,*32
948$GPGGA,082252.00,4221.581547,N,00134.133260,E,1,06,1.0,825.0,M,,M,,*79
949$PGLOR,STA,082252.00,1.150,0.000,-1159,1,10,3,PWR,D,N*75
950$PGLOR,SIO,TxERR,0,RxERR,0,TxCNT,204,RxCNT,1168,DTMS,1001,DTIN,1,DTOUT,310*43
951$PGLOR,PFM,HAL,P,0,0,100,0,RF,F,-123,0.4,25,RTC,23.7,P,STO,P,LTO,F*43
952$GPGSA,A,3,02,12,14,21,25,29,30,31,,,,,2.2,1.0,2.0*3B
953$PGLOR,FIX,1.0*3E
954$GPRMC,082252.00,A,4221.581547,N,00134.133260,E,032.8,078.6,111110,,*31
955$GPGGA,082253.00,4221.583629,N,00134.145188,E,1,06,1.0,826.0,M,,M,,*76
956$PGLOR,STA,082253.00,1.150,0.000,-1159,1,10,3,PWR,D,N*74
957$PGLOR,SIO,TxERR,0,RxERR,0,TxCNT,84,RxCNT,1460,DTMS,999,DTIN,1,DTOUT,310*4D
958$GPGSA,A,3,02,12,14,21,25,29,30,31,,,,,2.2,1.0,2.0*3B
959$PGLOR,FIX,1.0*3E
960$GPRMC,082253.00,A,4221.583629,N,00134.145188,E,032.8,076.5,111110,,*30
961$GPGGA,082254.00,4221.586463,N,00134.156895,E,1,06,1.0,826.0,M,,M,,*7F
962$PGLOR,STA,082254.00,1.150,0.000,-1160,1,10,3,PWR,D,N*79
963$PGLOR,SIO,TxERR,0,RxERR,0,TxCNT,232,RxCNT,1480,DTMS,1001,DTIN,1,DTOUT,310*45
964$GPGSV,3,1,09,29,85,220,48,30,65,318,47,25,64,062,46,31,45,308,48*76
965$GPGSV,3,2,09,12,28,086,48,14,23,229,42,21,16,172,45,02,18,045,11*7A
966$GPGSV,3,3,09,09,-1,145,*55
967$GPGSA,A,3,12,14,21,25,29,30,31,,,,,,2.2,1.0,2.0*39
968$PGLOR,FIX,1.0*3E
969$GPRMC,082254.00,A,4221.586463,N,00134.156895,E,033.0,073.1,111110,,*31
970$GPGGA,082255.00,4221.590123,N,00134.168128,E,1,07,1.0,827.0,M,,M,,*7A
971$PGLOR,STA,082255.00,1.150,0.000,-1160,1,10,3,PWR,D,N*78
972$PGLOR,SIO,TxERR,0,RxERR,0,TxCNT,124,RxCNT,1232,DTMS,1003,DTIN,1,DTOUT,310*4C
973$GPGSA,A,3,12,14,21,25,29,30,31,,,,,,2.2,1.0,2.0*39
974$PGLOR,FIX,1.0*3E
975$GPRMC,082255.00,A,4221.590123,N,00134.168128,E,032.9,069.4,111110,,*32
976$GPGGA,082256.00,4221.597529,N,00134.176921,E,1,07,1.0,827.0,M,,M,,*7E
977$PGLOR,STA,082256.00,1.150,0.000,-1162,1,10,1,PWR,D,N*7B
978$PGLOR,SIO,TxERR,0,RxERR,0,TxCNT,88,RxCNT,1476,DTMS,999,DTIN,1,DTOUT,310*46
979$GPGSA,A,3,12,14,21,25,29,30,31,,,,,,2.2,1.0,2.0*39
980$PGLOR,FIX,1.0*3E
981$GPRMC,082256.00,A,4221.597529,N,00134.176921,E,033.7,048.8,111110,,*36
982$GPGGA,082257.00,4221.605139,N,00134.185450,E,1,07,1.0,828.0,M,,M,,*7A
983$PGLOR,STA,082257.00,1.150,0.000,-1160,1,10,3,PWR,D,N*7A
984$PGLOR,SIO,TxERR,0,RxERR,0,TxCNT,104,RxCNT,1200,DTMS,999,DTIN,1,DTOUT,310*74
985$GPGSA,A,3,12,14,21,25,29,30,31,,,,,,2.2,1.0,2.0*39
986$PGLOR,FIX,1.0*3E
987$GPRMC,082257.00,A,4221.605139,N,00134.185450,E,034.2,046.7,111110,,*3E
988$GPGGA,082258.00,4221.613113,N,00134.193722,E,1,07,0.5,828.0,M,,M,,*7F
989$PGLOR,STA,082258.00,1.150,0.000,-1160,1,5,3,PWR,D,N*41
990$PGLOR,SIO,TxERR,0,RxERR,0,TxCNT,124,RxCNT,1532,DTMS,1000,DTIN,1,DTOUT,310*48
991$GPGSA,A,3,12,14,21,25,29,30,31,,,,,,1.1,0.5,1.0*3E
992$PGLOR,FIX,1.0*3E
993$GPRMC,082258.00,A,4221.613113,N,00134.193722,E,035.1,044.2,111110,,*3A
994$GPGGA,082259.00,4221.621265,N,00134.201690,E,1,07,0.5,828.0,M,,M,,*7D
995$PGLOR,STA,082259.00,1.150,0.000,-1160,1,5,3,PWR,D,N*40
996$PGLOR,SIO,TxERR,0,RxERR,0,TxCNT,220,RxCNT,1184,DTMS,1000,DTIN,1,DTOUT,310*46
997$GPGSV,2,1,08,29,85,220,48,30,65,318,47,25,64,062,47,31,45,308,48*77
998$GPGSV,2,2,08,12,28,086,48,14,23,229,42,21,16,172,45,02,18,045,*7A
999$GPGSA,A,3,12,14,21,25,29,30,31,,,,,,1.1,0.5,1.0*3E
1000$PGLOR,FIX,1.0*3E
1001$GPRMC,082259.00,A,4221.621265,N,00134.201690,E,035.2,042.2,111110,,*3D
1002$GPGGA,082300.00,4221.629558,N,00134.209572,E,1,07,0.5,829.0,M,,M,,*77
1003$PGLOR,STA,082300.00,1.150,0.000,-1160,1,5,3,PWR,D,N*4D
1004$PGLOR,SIO,TxERR,0,RxERR,0,TxCNT,180,RxCNT,1404,DTMS,1000,DTIN,2,DTOUT,310*41
1005$GPGSA,A,3,12,14,21,25,29,30,31,,,,,,1.1,0.5,1.0*3E
1006$PGLOR,FIX,1.0*3E
1007$GPRMC,082300.00,A,4221.629558,N,00134.209572,E,035.6,040.8,111110,,*3A
1008$GPGGA,082301.00,4221.637849,N,00134.217322,E,1,07,0.5,829.0,M,,M,,*78
1009$PGLOR,STA,082301.00,1.150,0.000,-1160,1,5,3,PWR,D,N*4C
1010$PGLOR,SIO,TxERR,0,RxERR,0,TxCNT,208,RxCNT,1448,DTMS,1000,DTIN,1,DTOUT,310*49
1011$GPGSA,A,3,12,14,21,25,29,30,31,,,,,,1.1,0.5,1.0*3E
1012$PGLOR,FIX,1.0*3E
1013$GPRMC,082301.00,A,4221.637849,N,00134.217322,E,035.4,039.9,111110,,*38
1014$GPGGA,082302.00,4221.646235,N,00134.225083,E,1,07,0.5,829.0,M,,M,,*75
1015$PGLOR,STA,082302.00,1.150,0.000,-1160,1,5,3,PWR,D,N*4F
1016$PGLOR,SIO,TxERR,0,RxERR,0,TxCNT,192,RxCNT,1296,DTMS,1000,DTIN,1,DTOUT,310*4C
1017$GPGSA,A,3,12,14,21,25,29,30,31,,,,,,1.1,0.5,1.0*3E
1018$PGLOR,FIX,1.0*3E
1019$GPRMC,082302.00,A,4221.646235,N,00134.225083,E,035.8,038.9,111110,,*38
1020$GPGGA,082303.00,4221.654584,N,00134.232856,E,1,07,0.5,829.0,M,,M,,*7C
1021$PGLOR,STA,082303.00,1.150,0.000,-1160,1,5,3,PWR,D,N*4E
1022$PGLOR,SIO,TxERR,0,RxERR,0,TxCNT,216,RxCNT,1564,DTMS,1003,DTIN,1,DTOUT,310*4A
1023$GPGSA,A,3,12,14,21,25,29,30,31,,,,,,1.1,0.5,1.0*3E
1024$PGLOR,FIX,1.0*3E
1025$GPRMC,082303.00,A,4221.654584,N,00134.232856,E,035.8,038.4,111110,,*3C
1026$GPGGA,082304.00,4221.662702,N,00134.240989,E,1,07,0.5,830.0,M,,M,,*7C
1027$PGLOR,STA,082304.00,1.150,0.000,-1160,1,5,3,PWR,D,N*49
1028$PGLOR,SIO,TxERR,0,RxERR,0,TxCNT,196,RxCNT,1288,DTMS,999,DTIN,1,DTOUT,310*7F
1029$GPGSV,2,1,08,29,85,220,48,30,65,318,46,25,64,062,47,31,45,308,47*79
1030$GPGSV,2,2,08,12,28,086,48,14,23,229,42,21,16,172,45,02,18,045,*7A
1031$GPGSA,A,3,12,14,21,25,29,30,31,,,,,,1.1,0.5,1.0*3E
1032$PGLOR,FIX,1.0*3E
1033$GPRMC,082304.00,A,4221.662702,N,00134.240989,E,035.8,039.4,111110,,*35
1034$GPGGA,082305.00,4221.670369,N,00134.249855,E,1,07,0.5,830.0,M,,M,,*7E
1035$PGLOR,STA,082305.00,1.150,0.000,-1160,1,5,3,PWR,D,N*48
1036$PGLOR,SIO,TxERR,0,RxERR,0,TxCNT,220,RxCNT,1272,DTMS,999,DTIN,1,DTOUT,310*74
1037$GPGSA,A,3,12,14,21,25,29,30,31,,,,,,1.1,0.5,1.0*3E
1038$PGLOR,FIX,1.0*3E
1039$GPRMC,082305.00,A,4221.670369,N,00134.249855,E,035.9,041.8,111110,,*35
1040$GPGGA,082306.00,4221.677382,N,00134.259658,E,1,07,0.5,830.0,M,,M,,*7D
1041$PGLOR,STA,082306.00,1.150,0.000,-1160,1,5,3,PWR,D,N*4B
1042$PGLOR,SIO,TxERR,0,RxERR,0,TxCNT,220,RxCNT,1432,DTMS,999,DTIN,2,DTOUT,310*75
1043$GPGSA,A,3,12,14,21,25,29,30,31,,,,,,1.1,0.5,1.0*3E
1044$PGLOR,FIX,1.0*3E
1045$GPRMC,082306.00,A,4221.677382,N,00134.259658,E,035.9,045.4,111110,,*3E
1046$GPGGA,082307.00,4221.683710,N,00134.270302,E,1,07,0.5,831.0,M,,M,,*78
1047$PGLOR,STA,082307.00,1.150,0.000,-1160,1,5,3,PWR,D,N*4A
1048$PGLOR,SIO,TxERR,0,RxERR,0,TxCNT,192,RxCNT,1248,DTMS,1000,DTIN,1,DTOUT,310*4F
1049$GPGSA,A,3,12,14,21,25,29,30,31,,,,,,1.1,0.5,1.0*3E
1050$PGLOR,FIX,1.0*3E
1051$GPRMC,082307.00,A,4221.683710,N,00134.270302,E,035.9,049.0,111110,,*32
1052$GPGGA,082308.00,4221.689523,N,00134.281646,E,1,07,0.5,831.0,M,,M,,*74
1053$PGLOR,STA,082308.00,1.150,0.000,-1160,1,5,3,PWR,D,N*45
1054$PGLOR,SIO,TxERR,0,RxERR,0,TxCNT,220,RxCNT,1508,DTMS,1001,DTIN,1,DTOUT,310*47
1055$GPGSA,A,3,12,14,21,25,29,30,31,,,,,,1.1,0.5,1.0*3E
1056$PGLOR,FIX,1.0*3E
1057$GPRMC,082308.00,A,4221.689523,N,00134.281646,E,036.1,051.9,111110,,*35
1058$GPGGA,082309.00,4221.694934,N,00134.293357,E,1,07,0.5,832.0,M,,M,,*76
1059$PGLOR,STA,082309.00,1.150,0.000,-1161,1,5,3,PWR,D,N*45
1060$PGLOR,SIO,TxERR,0,RxERR,0,TxCNT,200,RxCNT,1128,DTMS,999,DTIN,1,DTOUT,310*7A
1061$GPGSV,2,1,08,29,85,220,48,30,65,318,45,25,64,062,47,31,45,308,47*7A
1062$GPGSV,2,2,08,12,28,086,49,14,23,229,42,21,16,172,44,02,18,045,*7A
1063$GPGSA,A,3,12,14,21,25,29,30,31,,,,,,1.1,0.5,1.0*3E
1064$PGLOR,FIX,1.0*3E
1065$GPRMC,082309.00,A,4221.694934,N,00134.293357,E,036.1,054.2,111110,,*3A
1066$GPGGA,082310.00,4221.699665,N,00134.305753,E,1,07,0.5,832.0,M,,M,,*76
1067$PGLOR,STA,082310.00,1.150,0.000,-1160,1,5,3,PWR,D,N*4C
1068$PGLOR,SIO,TxERR,0,RxERR,0,TxCNT,192,RxCNT,1260,DTMS,1001,DTIN,1,DTOUT,310*44
1069$GPGSA,A,3,12,14,21,25,29,30,31,,,,,,1.1,0.5,1.0*3E
1070$PGLOR,FIX,1.0*3E
1071$GPRMC,082310.00,A,4221.699665,N,00134.305753,E,036.2,057.8,111110,,*30
1072$GPGGA,082311.00,4221.703717,N,00134.318674,E,1,07,0.5,833.0,M,,M,,*78
1073$PGLOR,STA,082311.00,1.150,0.000,-1160,1,5,3,PWR,D,N*4D
1074$PGLOR,SIO,TxERR,0,RxERR,0,TxCNT,208,RxCNT,1432,DTMS,999,DTIN,2,DTOUT,310*7F
1075$GPGSA,A,3,12,14,21,25,29,30,31,,,,,,1.1,0.5,1.0*3E
1076$PGLOR,FIX,1.0*3E
1077$GPRMC,082311.00,A,4221.703717,N,00134.318674,E,036.5,061.6,111110,,*33
1078$GPGGA,082312.00,4221.707209,N,00134.331914,E,1,06,0.5,833.0,M,,M,,*76
1079$PGLOR,STA,082312.00,1.150,0.000,-1160,1,5,3,PWR,D,N*4E
1080$PGLOR,SIO,TxERR,0,RxERR,0,TxCNT,192,RxCNT,1236,DTMS,998,DTIN,1,DTOUT,310*7F
1081$GPGSA,A,3,12,14,21,25,29,30,31,,,,,,1.1,0.5,1.0*3E
1082$PGLOR,FIX,1.0*3E
1083$GPRMC,082312.00,A,4221.707209,N,00134.331914,E,036.6,064.6,111110,,*3A
1084$GPGGA,082313.00,4221.710655,N,00134.345106,E,1,06,0.5,833.0,M,,M,,*74
1085$PGLOR,STA,082313.00,1.150,0.000,-1160,1,5,3,PWR,D,N*4F
1086$PGLOR,SIO,TxERR,0,RxERR,0,TxCNT,208,RxCNT,1508,DTMS,1001,DTIN,1,DTOUT,310*4D
1087$GPGSA,A,3,12,14,21,25,29,30,31,,,,,,1.1,0.5,1.0*3E
1088$PGLOR,FIX,1.0*3E
1089$GPRMC,082313.00,A,4221.710655,N,00134.345106,E,036.6,065.5,111110,,*3A
1090$GPGGA,082314.00,4221.714446,N,00134.358199,E,1,07,0.5,834.0,M,,M,,*7B
1091$PGLOR,STA,082314.00,1.150,0.000,-1160,1,5,3,PWR,D,N*48
1092$PGLOR,SIO,TxERR,0,RxERR,0,TxCNT,208,RxCNT,1220,DTMS,1000,DTIN,1,DTOUT,310*41
1093$GPGSV,2,1,08,29,85,220,48,30,65,318,46,25,64,063,47,31,45,308,47*78
1094$GPGSV,2,2,08,12,28,086,49,14,23,229,42,21,16,172,41,02,18,045,*7F
1095$GPGSA,A,3,12,14,21,25,29,30,31,,,,,,1.1,0.5,1.0*3E
1096$PGLOR,FIX,1.0*3E
1097$GPRMC,082314.00,A,4221.714446,N,00134.358199,E,037.1,064.6,111110,,*37
1098$GPGGA,082315.00,4221.718776,N,00134.370974,E,1,07,0.5,834.0,M,,M,,*77
1099$PGLOR,STA,082315.00,1.150,0.000,-1160,1,5,3,PWR,D,N*49
1100$PGLOR,SIO,TxERR,0,RxERR,0,TxCNT,216,RxCNT,1136,DTMS,1001,DTIN,1,DTOUT,310*4B
1101$GPGSA,A,3,12,14,21,25,29,30,31,,,,,,1.1,0.5,1.0*3E
1102$PGLOR,FIX,1.0*3E
1103$GPRMC,082315.00,A,4221.718776,N,00134.370974,E,037.3,063.0,111110,,*38
1104$GPGGA,082316.00,4221.723475,N,00134.383395,E,1,07,0.5,834.0,M,,M,,*75
1105$PGLOR,STA,082316.00,1.150,0.000,-1160,1,5,3,PWR,D,N*4A
1106$PGLOR,SIO,TxERR,0,RxERR,0,TxCNT,220,RxCNT,1136,DTMS,999,DTIN,1,DTOUT,310*77
1107$GPGSA,A,3,12,14,21,25,29,30,31,,,,,,1.1,0.5,1.0*3E
1108$PGLOR,FIX,1.0*3E
1109$GPRMC,082316.00,A,4221.723475,N,00134.383395,E,037.2,061.6,111110,,*3F
1110$GPGGA,082317.00,4221.728221,N,00134.395924,E,1,07,0.5,835.0,M,,M,,*7E
1111$PGLOR,STA,082317.00,1.150,0.000,-1161,1,5,3,PWR,D,N*4A
1112$PGLOR,SIO,TxERR,0,RxERR,0,TxCNT,192,RxCNT,1280,DTMS,999,DTIN,1,DTOUT,310*73
1113$GPGSA,A,3,12,14,21,25,29,30,31,,,,,,1.1,0.5,1.0*3E
1114$PGLOR,FIX,1.0*3E
1115$GPRMC,082317.00,A,4221.728221,N,00134.395924,E,037.7,061.4,111110,,*32
1116$GPGGA,082318.00,4221.732473,N,00134.408662,E,1,07,0.5,835.0,M,,M,,*75
1117$PGLOR,STA,082318.00,1.150,0.000,-1161,1,5,3,PWR,D,N*45
1118$PGLOR,SIO,TxERR,0,RxERR,0,TxCNT,208,RxCNT,1508,DTMS,1003,DTIN,2,DTOUT,310*4C
1119$GPGSA,A,3,12,14,21,25,29,30,31,,,,,,1.1,0.5,1.0*3E
1120$PGLOR,FIX,1.0*3E
1121$GPRMC,082318.00,A,4221.732473,N,00134.408662,E,037.2,063.8,111110,,*32
1122$GPGGA,082319.00,4221.734039,N,00134.422671,E,1,07,0.5,835.0,M,,M,,*72
1123$PGLOR,STA,082319.00,1.150,0.000,-1161,1,5,1,PWR,D,N*46
1124$PGLOR,SIO,TxERR,0,RxERR,0,TxCNT,192,RxCNT,1228,DTMS,1000,DTIN,2,DTOUT,310*4A
1125$GPGSV,2,1,08,29,85,220,48,30,65,318,46,25,64,063,47,31,45,308,47*78
1126$GPGSV,2,2,08,12,28,086,49,14,23,229,42,21,16,172,43,02,18,045,*7D
1127$GPGSA,A,3,12,14,21,25,29,30,31,,,,,,1.1,0.5,1.0*3E
1128$PGLOR,FIX,1.0*3E
1129$GPRMC,082319.00,A,4221.734039,N,00134.422671,E,037.1,077.8,111110,,*33
1130$GPGGA,082320.00,4221.735097,N,00134.436885,E,1,07,0.5,835.0,M,,M,,*7D
1131$PGLOR,STA,082320.00,1.150,0.000,-1161,1,5,3,PWR,D,N*4E
1132$PGLOR,SIO,TxERR,0,RxERR,0,TxCNT,192,RxCNT,1248,DTMS,998,DTIN,1,DTOUT,310*76
1133$GPGSA,A,3,12,14,21,25,29,30,31,,,,,,1.1,0.5,1.0*3E
1134$PGLOR,FIX,1.0*3E
1135$GPRMC,082320.00,A,4221.735097,N,00134.436885,E,037.6,080.8,111110,,*33
1136$GPGGA,082321.00,4221.733407,N,00134.451596,E,1,07,0.5,835.0,M,,M,,*79
1137$PGLOR,STA,082321.00,1.150,0.000,-1161,1,5,1,PWR,D,N*4D
1138$PGLOR,SIO,TxERR,0,RxERR,0,TxCNT,252,RxCNT,1700,DTMS,1003,DTIN,1,DTOUT,310*4A
1139$GPGSA,A,3,12,14,21,25,29,30,31,,,,,,1.1,0.5,1.0*3E
1140$PGLOR,FIX,1.0*3E
1141$GPRMC,082321.00,A,4221.733407,N,00134.451596,E,038.4,094.2,111110,,*35
1142$GPGGA,082322.00,4221.731265,N,00134.466158,E,1,07,0.5,835.0,M,,M,,*78
1143$PGLOR,STA,082322.00,1.150,0.000,-1161,1,5,3,PWR,D,N*4C
1144$PGLOR,SIO,TxERR,0,RxERR,0,TxCNT,192,RxCNT,1124,DTMS,998,DTIN,7,DTOUT,310*79
1145$GPGSA,A,3,12,14,21,25,29,30,31,,,,,,1.1,0.5,1.0*3E
1146$PGLOR,FIX,1.0*3E
1147$GPRMC,082322.00,A,4221.731265,N,00134.466158,E,038.7,097.0,111110,,*36
1148$GPGGA,082323.00,4221.728161,N,00134.469591,E,1,06,0.5,836.0,M,,M,,*7A
1149$PGLOR,STA,082323.00,1.150,0.000,-1161,1,5,3,PWR,D,N*4D
1150$PGLOR,SIO,TxERR,0,RxERR,0,TxCNT,204,RxCNT,1228,DTMS,998,DTIN,1,DTOUT,310*7C
1151$GPGSA,A,3,12,14,21,25,29,30,31,,,,,,1.1,0.5,1.0*3E
1152$PGLOR,FIX,1.0*3E
1153$GPRMC,082323.00,A,4221.728161,N,00134.469591,E,039.1,100.8,111110,,*36
1154$GPGGA,082324.00,4221.723992,N,00134.483267,E,1,06,0.5,836.0,M,,M,,*78
1155$PGLOR,STA,082324.00,1.150,0.000,-1161,1,5,1,PWR,D,N*48
1156$PGLOR,SIO,TxERR,0,RxERR,0,TxCNT,216,RxCNT,1372,DTMS,1000,DTIN,1,DTOUT,310*48
1157$GPGSV,2,1,08,29,85,220,48,30,65,318,46,25,64,063,46,31,45,308,47*79
1158$GPGSV,2,2,08,12,28,086,49,14,23,229,41,21,16,172,47,02,18,045,*7A
1159$GPGSA,A,3,12,14,21,25,29,30,31,,,,,,1.1,0.5,1.0*3E
1160$PGLOR,FIX,1.0*3E
1161$GPRMC,082324.00,A,4221.723992,N,00134.483267,E,039.2,110.1,111110,,*3F
1162$GPGGA,082325.00,4221.719837,N,00134.497125,E,1,06,0.5,836.0,M,,M,,*7E
1163$PGLOR,STA,082325.00,1.150,0.000,-1161,1,5,3,PWR,D,N*4B
1164$PGLOR,SIO,TxERR,0,RxERR,0,TxCNT,112,RxCNT,1764,DTMS,1007,DTIN,1,DTOUT,310*4B
1165$GPGSA,A,3,12,14,21,25,29,30,31,,,,,,1.1,0.5,1.0*3E
1166$PGLOR,FIX,1.0*3E
1167$GPRMC,082325.00,A,4221.719837,N,00134.497125,E,039.4,110.6,111110,,*38
1168$GPGGA,082326.00,4221.715725,N,00134.511153,E,1,06,0.5,837.0,M,,M,,*72
1169$PGLOR,STA,082326.00,1.150,0.000,-1161,1,5,3,PWR,D,N*48
1170$PGLOR,SIO,TxERR,0,RxERR,0,TxCNT,220,RxCNT,2276,DTMS,998,DTIN,1,DTOUT,310*72
1171$GPGSA,A,3,12,14,21,25,29,30,31,,,,,,1.1,0.5,1.0*3E
1172$PGLOR,FIX,1.0*3E